<?xml version="1.0" encoding="UTF-8"?>
<gpx creator="Garmin Connect" version="1.1"
  xsi:schemaLocation="http://www.topografix.com/GPX/1/1 http://www.topografix.com/GPX/11.xsd"
  xmlns:ns3="http://www.garmin.com/xmlschemas/TrackPointExtension/v1"
  xmlns="http://www.topografix.com/GPX/1/1"
  xmlns:xsi="http://www.w3.org/2001/XMLSchema-instance" xmlns:ns2="http://www.garmin.com/xmlschemas/GpxExtensions/v3">
  <metadata>
    <name>Elafi 21km</name>
    <link href="connect.garmin.com">
      <text>Garmin Connect</text>
    </link>
    <time>2025-05-29T04:41:10.000Z</time>
  </metadata>
  <trk>
    <name>Elafi 21km</name>
    <trkseg>
      <trkpt lat="38.182410495355725" lon="23.732399940490723">
        <ele>1025.27</ele>
        <time>2025-05-29T04:41:10.000Z</time>
      </trkpt>
      <trkpt lat="38.18266153335571" lon="23.732399940490723">
        <ele>1026.13</ele>
        <time>2025-05-29T04:41:10.008Z</time>
      </trkpt>
      <trkpt lat="38.18272590637207" lon="23.73246431350708">
        <ele>1026.95</ele>
        <time>2025-05-29T04:41:10.019Z</time>
      </trkpt>
      <trkpt lat="38.18272590637207" lon="23.73275457881391">
        <ele>1027.86</ele>
        <time>2025-05-29T04:41:10.038Z</time>
      </trkpt>
      <trkpt lat="38.1827259901911" lon="23.733043670654297">
        <ele>1028.91</ele>
        <time>2025-05-29T04:41:10.064Z</time>
      </trkpt>
      <trkpt lat="38.18272590637207" lon="23.733043670654297">
        <ele>1029.61</ele>
        <time>2025-05-29T04:41:10.090Z</time>
      </trkpt>
      <trkpt lat="38.18262917920947" lon="23.733344497159123">
        <ele>1030.38</ele>
        <time>2025-05-29T04:41:10.125Z</time>
      </trkpt>
      <trkpt lat="38.182532787323" lon="23.733644485473633">
        <ele>1031.07</ele>
        <time>2025-05-29T04:41:10.168Z</time>
      </trkpt>
      <trkpt lat="38.18259724415839" lon="23.7338378559798">
        <ele>1031.56</ele>
        <time>2025-05-29T04:41:10.217Z</time>
      </trkpt>
      <trkpt lat="38.18266153335571" lon="23.734030723571777">
        <ele>1031.85</ele>
        <time>2025-05-29T04:41:10.271Z</time>
      </trkpt>
      <trkpt lat="38.182597160339355" lon="23.734159469604492">
        <ele>1031.74</ele>
        <time>2025-05-29T04:41:10.329Z</time>
      </trkpt>
      <trkpt lat="38.18244704045355" lon="23.734288047999144">
        <ele>1031.45</ele>
        <time>2025-05-29T04:41:10.393Z</time>
      </trkpt>
      <trkpt lat="38.18229675292969" lon="23.734416961669922">
        <ele>1030.82</ele>
        <time>2025-05-29T04:41:10.463Z</time>
      </trkpt>
      <trkpt lat="38.18222148343921" lon="23.73462106101215">
        <ele>1030.15</ele>
        <time>2025-05-29T04:41:10.539Z</time>
      </trkpt>
      <trkpt lat="38.18214654922485" lon="23.734824657440186">
        <ele>1029.27</ele>
        <time>2025-05-29T04:41:10.621Z</time>
      </trkpt>
      <trkpt lat="38.182125091552734" lon="23.735082149505615">
        <ele>1028.27</ele>
        <time>2025-05-29T04:41:10.710Z</time>
      </trkpt>
      <trkpt lat="38.18219021894038" lon="23.735362188890576">
        <ele>1027.21</ele>
        <time>2025-05-29T04:41:10.807Z</time>
      </trkpt>
      <trkpt lat="38.18225534632802" lon="23.73564231209457">
        <ele>1025.94</ele>
        <time>2025-05-29T04:41:10.911Z</time>
      </trkpt>
      <trkpt lat="38.182320138439536" lon="23.735921010375023">
        <ele>1024.48</ele>
        <time>2025-05-29T04:41:11.023Z</time>
      </trkpt>
      <trkpt lat="38.182339668273926" lon="23.73600482940674">
        <ele>1023.01</ele>
        <time>2025-05-29T04:41:11.137Z</time>
      </trkpt>
      <trkpt lat="38.1824254989624" lon="23.73621940612793">
        <ele>1021.4</ele>
        <time>2025-05-29T04:41:11.258Z</time>
      </trkpt>
      <trkpt lat="38.18255424499512" lon="23.736391067504883">
        <ele>1019.81</ele>
        <time>2025-05-29T04:41:11.385Z</time>
      </trkpt>
      <trkpt lat="38.182661617174745" lon="23.7366596236825">
        <ele>1018.16</ele>
        <time>2025-05-29T04:41:11.520Z</time>
      </trkpt>
      <trkpt lat="38.18276882171631" lon="23.73692750930786">
        <ele>1016.45</ele>
        <time>2025-05-29T04:41:11.663Z</time>
      </trkpt>
      <trkpt lat="38.18289756774902" lon="23.737142086029053">
        <ele>1014.72</ele>
        <time>2025-05-29T04:41:11.813Z</time>
      </trkpt>
      <trkpt lat="38.18315505981445" lon="23.737292289733887">
        <ele>1013.07</ele>
        <time>2025-05-29T04:41:11.972Z</time>
      </trkpt>
      <trkpt lat="38.18339059129357" lon="23.737313663586974">
        <ele>1011.38</ele>
        <time>2025-05-29T04:41:12.139Z</time>
      </trkpt>
      <trkpt lat="38.183627128601074" lon="23.737335205078125">
        <ele>1009.59</ele>
        <time>2025-05-29T04:41:12.314Z</time>
      </trkpt>
      <trkpt lat="38.18382024765015" lon="23.73722791671753">
        <ele>1008.21</ele>
        <time>2025-05-29T04:41:12.496Z</time>
      </trkpt>
      <trkpt lat="38.184066507965326" lon="23.737163627520204">
        <ele>1007.0</ele>
        <time>2025-05-29T04:41:12.686Z</time>
      </trkpt>
      <trkpt lat="38.18431377410889" lon="23.737099170684814">
        <ele>1005.95</ele>
        <time>2025-05-29T04:41:12.885Z</time>
      </trkpt>
      <trkpt lat="38.184535056352615" lon="23.73714200221002">
        <ele>1004.94</ele>
        <time>2025-05-29T04:41:13.091Z</time>
      </trkpt>
      <trkpt lat="38.184756338596344" lon="23.737184833735228">
        <ele>1004.03</ele>
        <time>2025-05-29T04:41:13.305Z</time>
      </trkpt>
      <trkpt lat="38.18497896194458" lon="23.73722791671753">
        <ele>1003.28</ele>
        <time>2025-05-29T04:41:13.526Z</time>
      </trkpt>
      <trkpt lat="38.18513427861035" lon="23.737276615574956">
        <ele>1002.78</ele>
        <time>2025-05-29T04:41:13.753Z</time>
      </trkpt>
      <trkpt lat="38.18529026582837" lon="23.737325565889478">
        <ele>1002.5</ele>
        <time>2025-05-29T04:41:13.985Z</time>
      </trkpt>
      <trkpt lat="38.18555077537894" lon="23.7374072894454">
        <ele>1002.41</ele>
        <time>2025-05-29T04:41:14.226Z</time>
      </trkpt>
      <trkpt lat="38.185811284929514" lon="23.737489013001323">
        <ele>1002.32</ele>
        <time>2025-05-29T04:41:14.476Z</time>
      </trkpt>
      <trkpt lat="38.186073303222656" lon="23.737571239471436">
        <ele>1002.33</ele>
        <time>2025-05-29T04:41:14.735Z</time>
      </trkpt>
      <trkpt lat="38.186351750046015" lon="23.737478367984295">
        <ele>1002.56</ele>
        <time>2025-05-29T04:41:15.003Z</time>
      </trkpt>
      <trkpt lat="38.18663019686937" lon="23.737385580316186">
        <ele>1002.99</ele>
        <time>2025-05-29T04:41:15.281Z</time>
      </trkpt>
      <trkpt lat="38.1869101524353" lon="23.737292289733887">
        <ele>1003.5</ele>
        <time>2025-05-29T04:41:15.569Z</time>
      </trkpt>
      <trkpt lat="38.18707091733813" lon="23.737152898684144">
        <ele>1004.21</ele>
        <time>2025-05-29T04:41:15.863Z</time>
      </trkpt>
      <trkpt lat="38.18723201751709" lon="23.737013339996338">
        <ele>1004.91</ele>
        <time>2025-05-29T04:41:16.164Z</time>
      </trkpt>
      <trkpt lat="38.187517588958144" lon="23.736920468509197">
        <ele>1005.59</ele>
        <time>2025-05-29T04:41:16.474Z</time>
      </trkpt>
      <trkpt lat="38.1878031603992" lon="23.73682768084109">
        <ele>1006.24</ele>
        <time>2025-05-29T04:41:16.794Z</time>
      </trkpt>
      <trkpt lat="38.188090324401855" lon="23.73673439025879">
        <ele>1006.83</ele>
        <time>2025-05-29T04:41:17.124Z</time>
      </trkpt>
      <trkpt lat="38.1882831081748" lon="23.736637914553285">
        <ele>1007.47</ele>
        <time>2025-05-29T04:41:17.461Z</time>
      </trkpt>
      <trkpt lat="38.1884765625" lon="23.736541271209717">
        <ele>1008.14</ele>
        <time>2025-05-29T04:41:17.805Z</time>
      </trkpt>
      <trkpt lat="38.18872282281518" lon="23.736455524340272">
        <ele>1008.86</ele>
        <time>2025-05-29T04:41:18.157Z</time>
      </trkpt>
      <trkpt lat="38.18896916694939" lon="23.73636986128986">
        <ele>1009.6</ele>
        <time>2025-05-29T04:41:18.518Z</time>
      </trkpt>
      <trkpt lat="38.1892155110836" lon="23.736284198239446">
        <ele>1010.28</ele>
        <time>2025-05-29T04:41:18.887Z</time>
      </trkpt>
      <trkpt lat="38.18946361541748" lon="23.73619794845581">
        <ele>1010.9</ele>
        <time>2025-05-29T04:41:19.265Z</time>
      </trkpt>
      <trkpt lat="38.18974197842181" lon="23.736149752512574">
        <ele>1011.45</ele>
        <time>2025-05-29T04:41:19.652Z</time>
      </trkpt>
      <trkpt lat="38.190020341426134" lon="23.736101556569338">
        <ele>1011.93</ele>
        <time>2025-05-29T04:41:20.049Z</time>
      </trkpt>
      <trkpt lat="38.19029878824949" lon="23.7360533606261">
        <ele>1012.29</ele>
        <time>2025-05-29T04:41:20.455Z</time>
      </trkpt>
      <trkpt lat="38.190579414367676" lon="23.73600482940674">
        <ele>1012.64</ele>
        <time>2025-05-29T04:41:20.871Z</time>
      </trkpt>
      <trkpt lat="38.19077211432159" lon="23.736015474423766">
        <ele>1012.89</ele>
        <time>2025-05-29T04:41:21.293Z</time>
      </trkpt>
      <trkpt lat="38.19096565246582" lon="23.736026287078857">
        <ele>1013.03</ele>
        <time>2025-05-29T04:41:21.721Z</time>
      </trkpt>
      <trkpt lat="38.191158352419734" lon="23.736058389768004">
        <ele>1013.1</ele>
        <time>2025-05-29T04:41:22.156Z</time>
      </trkpt>
      <trkpt lat="38.191351890563965" lon="23.736090660095215">
        <ele>1013.07</ele>
        <time>2025-05-29T04:41:22.597Z</time>
      </trkpt>
      <trkpt lat="38.19160879589617" lon="23.736095940694213">
        <ele>1012.96</ele>
        <time>2025-05-29T04:41:23.047Z</time>
      </trkpt>
      <trkpt lat="38.19186578504741" lon="23.736101305112243">
        <ele>1012.73</ele>
        <time>2025-05-29T04:41:23.505Z</time>
      </trkpt>
      <trkpt lat="38.19212277419865" lon="23.736106669530272">
        <ele>1012.35</ele>
        <time>2025-05-29T04:41:23.972Z</time>
      </trkpt>
      <trkpt lat="38.192381858825684" lon="23.736112117767334">
        <ele>1012.09</ele>
        <time>2025-05-29T04:41:24.448Z</time>
      </trkpt>
      <trkpt lat="38.19253206253052" lon="23.735876083374023">
        <ele>1011.62</ele>
        <time>2025-05-29T04:41:24.932Z</time>
      </trkpt>
      <trkpt lat="38.19263935089111" lon="23.735554218292236">
        <ele>1010.97</ele>
        <time>2025-05-29T04:41:25.425Z</time>
      </trkpt>
      <trkpt lat="38.19283221848309" lon="23.735425556078553">
        <ele>1010.28</ele>
        <time>2025-05-29T04:41:25.925Z</time>
      </trkpt>
      <trkpt lat="38.19302508607507" lon="23.735296977683902">
        <ele>1009.46</ele>
        <time>2025-05-29T04:41:26.432Z</time>
      </trkpt>
      <trkpt lat="38.19321870803833" lon="23.735167980194092">
        <ele>1008.59</ele>
        <time>2025-05-29T04:41:26.947Z</time>
      </trkpt>
      <trkpt lat="38.19343311712146" lon="23.73498567380011">
        <ele>1007.57</ele>
        <time>2025-05-29T04:41:27.470Z</time>
      </trkpt>
      <trkpt lat="38.19364786148071" lon="23.734803199768066">
        <ele>1006.52</ele>
        <time>2025-05-29T04:41:28.002Z</time>
      </trkpt>
      <trkpt lat="38.193862019106746" lon="23.734706724062562">
        <ele>1005.37</ele>
        <time>2025-05-29T04:41:28.541Z</time>
      </trkpt>
      <trkpt lat="38.194077014923096" lon="23.734610080718994">
        <ele>1004.13</ele>
        <time>2025-05-29T04:41:29.088Z</time>
      </trkpt>
      <trkpt lat="38.19436610676348" lon="23.73452433384955">
        <ele>1002.81</ele>
        <time>2025-05-29T04:41:29.645Z</time>
      </trkpt>
      <trkpt lat="38.19465637207031" lon="23.73443841934204">
        <ele>1001.17</ele>
        <time>2025-05-29T04:41:30.212Z</time>
      </trkpt>
      <trkpt lat="38.19472074508667" lon="23.734266757965088">
        <ele>999.54</ele>
        <time>2025-05-29T04:41:30.784Z</time>
      </trkpt>
      <trkpt lat="38.19478511810303" lon="23.73396635055542">
        <ele>997.86</ele>
        <time>2025-05-29T04:41:31.364Z</time>
      </trkpt>
      <trkpt lat="38.19478511810303" lon="23.733794689178467">
        <ele>996.22</ele>
        <time>2025-05-29T04:41:31.948Z</time>
      </trkpt>
      <trkpt lat="38.19479584693909" lon="23.733515068888664">
        <ele>994.44</ele>
        <time>2025-05-29T04:41:32.540Z</time>
      </trkpt>
      <trkpt lat="38.19480657577515" lon="23.73323678970337">
        <ele>992.52</ele>
        <time>2025-05-29T04:41:33.139Z</time>
      </trkpt>
      <trkpt lat="38.19478511810303" lon="23.733022212982178">
        <ele>990.59</ele>
        <time>2025-05-29T04:41:33.744Z</time>
      </trkpt>
      <trkpt lat="38.19480657577515" lon="23.732807133346796">
        <ele>988.55</ele>
        <time>2025-05-29T04:41:34.355Z</time>
      </trkpt>
      <trkpt lat="38.194828033447266" lon="23.732593059539795">
        <ele>986.53</ele>
        <time>2025-05-29T04:41:34.971Z</time>
      </trkpt>
      <trkpt lat="38.1948281172663" lon="23.732292652130127">
        <ele>984.55</ele>
        <time>2025-05-29T04:41:35.595Z</time>
      </trkpt>
      <trkpt lat="38.19491386413574" lon="23.732056617736816">
        <ele>982.38</ele>
        <time>2025-05-29T04:41:36.226Z</time>
      </trkpt>
      <trkpt lat="38.19511754438281" lon="23.731874311342835">
        <ele>979.9</ele>
        <time>2025-05-29T04:41:36.865Z</time>
      </trkpt>
      <trkpt lat="38.195321559906006" lon="23.73169183731079">
        <ele>977.48</ele>
        <time>2025-05-29T04:41:37.513Z</time>
      </trkpt>
      <trkpt lat="38.19538593292236" lon="23.73143434524536">
        <ele>975.23</ele>
        <time>2025-05-29T04:41:38.168Z</time>
      </trkpt>
      <trkpt lat="38.19542893208563" lon="23.731038635596633">
        <ele>972.97</ele>
        <time>2025-05-29T04:41:38.833Z</time>
      </trkpt>
      <trkpt lat="38.1954719312489" lon="23.730643009766936">
        <ele>970.77</ele>
        <time>2025-05-29T04:41:39.509Z</time>
      </trkpt>
      <trkpt lat="38.19551493041217" lon="23.73024738393724">
        <ele>968.32</ele>
        <time>2025-05-29T04:41:40.195Z</time>
      </trkpt>
      <trkpt lat="38.19555792957544" lon="23.729851758107543">
        <ele>965.8</ele>
        <time>2025-05-29T04:41:40.892Z</time>
      </trkpt>
      <trkpt lat="38.195600509643555" lon="23.7294602394104">
        <ele>963.47</ele>
        <time>2025-05-29T04:41:41.599Z</time>
      </trkpt>
      <trkpt lat="38.195600509643555" lon="23.72915916144848">
        <ele>961.22</ele>
        <time>2025-05-29T04:41:42.314Z</time>
      </trkpt>
      <trkpt lat="38.195600509643555" lon="23.728859424591064">
        <ele>958.96</ele>
        <time>2025-05-29T04:41:43.037Z</time>
      </trkpt>
      <trkpt lat="38.19570779800415" lon="23.728644847869873">
        <ele>956.64</ele>
        <time>2025-05-29T04:41:43.766Z</time>
      </trkpt>
      <trkpt lat="38.19591147825122" lon="23.728462541475892">
        <ele>954.44</ele>
        <time>2025-05-29T04:41:44.504Z</time>
      </trkpt>
      <trkpt lat="38.196115493774414" lon="23.728280067443848">
        <ele>952.34</ele>
        <time>2025-05-29T04:41:45.250Z</time>
      </trkpt>
      <trkpt lat="38.19629763253033" lon="23.728172862902284">
        <ele>950.4</ele>
        <time>2025-05-29T04:41:46.003Z</time>
      </trkpt>
      <trkpt lat="38.19648027420044" lon="23.728065490722656">
        <ele>948.39</ele>
        <time>2025-05-29T04:41:46.762Z</time>
      </trkpt>
      <trkpt lat="38.19668370299041" lon="23.72799047268927">
        <ele>946.49</ele>
        <time>2025-05-29T04:41:47.529Z</time>
      </trkpt>
      <trkpt lat="38.1968879699707" lon="23.727915287017822">
        <ele>944.61</ele>
        <time>2025-05-29T04:41:48.303Z</time>
      </trkpt>
      <trkpt lat="38.197038006037474" lon="23.7277973536402">
        <ele>942.74</ele>
        <time>2025-05-29T04:41:49.083Z</time>
      </trkpt>
      <trkpt lat="38.19718837738037" lon="23.72767925262451">
        <ele>940.96</ele>
        <time>2025-05-29T04:41:49.868Z</time>
      </trkpt>
      <trkpt lat="38.19737051613629" lon="23.727572048082948">
        <ele>939.11</ele>
        <time>2025-05-29T04:41:50.660Z</time>
      </trkpt>
      <trkpt lat="38.1975531578064" lon="23.72746467590332">
        <ele>937.37</ele>
        <time>2025-05-29T04:41:51.459Z</time>
      </trkpt>
      <trkpt lat="38.19773521274328" lon="23.727400386705995">
        <ele>935.77</ele>
        <time>2025-05-29T04:41:52.264Z</time>
      </trkpt>
      <trkpt lat="38.19791793823242" lon="23.727335929870605">
        <ele>934.24</ele>
        <time>2025-05-29T04:41:53.075Z</time>
      </trkpt>
      <trkpt lat="38.198121367022395" lon="23.727325201034546">
        <ele>932.73</ele>
        <time>2025-05-29T04:41:53.893Z</time>
      </trkpt>
      <trkpt lat="38.198325634002686" lon="23.727314472198486">
        <ele>931.25</ele>
        <time>2025-05-29T04:41:54.718Z</time>
      </trkpt>
      <trkpt lat="38.198550436645746" lon="23.727346574887633">
        <ele>929.82</ele>
        <time>2025-05-29T04:41:55.551Z</time>
      </trkpt>
      <trkpt lat="38.19877624511719" lon="23.727378845214844">
        <ele>928.44</ele>
        <time>2025-05-29T04:41:56.391Z</time>
      </trkpt>
      <trkpt lat="38.198804911226034" lon="23.727312041446567">
        <ele>927.13</ele>
        <time>2025-05-29T04:41:57.233Z</time>
      </trkpt>
      <trkpt lat="38.198840618133545" lon="23.72722864151001">
        <ele>925.83</ele>
        <time>2025-05-29T04:41:58.078Z</time>
      </trkpt>
      <trkpt lat="38.19877624511719" lon="23.727035522460938">
        <ele>924.54</ele>
        <time>2025-05-29T04:41:58.928Z</time>
      </trkpt>
      <trkpt lat="38.198604583740234" lon="23.726863861083984">
        <ele>923.2</ele>
        <time>2025-05-29T04:41:59.785Z</time>
      </trkpt>
      <trkpt lat="38.198454547673464" lon="23.7267888430506">
        <ele>922.01</ele>
        <time>2025-05-29T04:42:00.648Z</time>
      </trkpt>
      <trkpt lat="38.198304176330566" lon="23.72671365737915">
        <ele>920.83</ele>
        <time>2025-05-29T04:42:01.516Z</time>
      </trkpt>
      <trkpt lat="38.198047103360295" lon="23.726638639345765">
        <ele>919.74</ele>
        <time>2025-05-29T04:42:02.393Z</time>
      </trkpt>
      <trkpt lat="38.19778919219971" lon="23.726563453674316">
        <ele>918.65</ele>
        <time>2025-05-29T04:42:03.279Z</time>
      </trkpt>
      <trkpt lat="38.197564305737615" lon="23.726520538330078">
        <ele>917.46</ele>
        <time>2025-05-29T04:42:04.172Z</time>
      </trkpt>
      <trkpt lat="38.197338581085205" lon="23.72647762298584">
        <ele>916.21</ele>
        <time>2025-05-29T04:42:05.073Z</time>
      </trkpt>
      <trkpt lat="38.19706013426185" lon="23.72645616531372">
        <ele>915.02</ele>
        <time>2025-05-29T04:42:05.983Z</time>
      </trkpt>
      <trkpt lat="38.19678068161011" lon="23.7264347076416">
        <ele>914.04</ele>
        <time>2025-05-29T04:42:06.903Z</time>
      </trkpt>
      <trkpt lat="38.19651296362281" lon="23.726370418444276">
        <ele>913.02</ele>
        <time>2025-05-29T04:42:07.832Z</time>
      </trkpt>
      <trkpt lat="38.19624423980713" lon="23.726305961608887">
        <ele>911.99</ele>
        <time>2025-05-29T04:42:08.770Z</time>
      </trkpt>
      <trkpt lat="38.19596562534571" lon="23.726166654378176">
        <ele>910.88</ele>
        <time>2025-05-29T04:42:09.718Z</time>
      </trkpt>
      <trkpt lat="38.19568634033203" lon="23.726027011871338">
        <ele>909.76</ele>
        <time>2025-05-29T04:42:10.676Z</time>
      </trkpt>
      <trkpt lat="38.195482827723026" lon="23.72597345151007">
        <ele>908.65</ele>
        <time>2025-05-29T04:42:11.641Z</time>
      </trkpt>
      <trkpt lat="38.19527864456177" lon="23.725919723510742">
        <ele>907.47</ele>
        <time>2025-05-29T04:42:12.613Z</time>
      </trkpt>
      <trkpt lat="38.19504261016846" lon="23.725898265838623">
        <ele>906.38</ele>
        <time>2025-05-29T04:42:13.592Z</time>
      </trkpt>
      <trkpt lat="38.19483909755945" lon="23.72591963969171">
        <ele>905.53</ele>
        <time>2025-05-29T04:42:14.578Z</time>
      </trkpt>
      <trkpt lat="38.19463491439819" lon="23.72594118118286">
        <ele>904.84</ele>
        <time>2025-05-29T04:42:15.571Z</time>
      </trkpt>
      <trkpt lat="38.194570541381836" lon="23.725919723510742">
        <ele>904.04</ele>
        <time>2025-05-29T04:42:16.566Z</time>
      </trkpt>
      <trkpt lat="38.19454908370972" lon="23.725833892822266">
        <ele>903.18</ele>
        <time>2025-05-29T04:42:17.564Z</time>
      </trkpt>
      <trkpt lat="38.19463491439819" lon="23.725640773773193">
        <ele>901.99</ele>
        <time>2025-05-29T04:42:18.567Z</time>
      </trkpt>
      <trkpt lat="38.19487086497247" lon="23.725383281707764">
        <ele>900.77</ele>
        <time>2025-05-29T04:42:19.581Z</time>
      </trkpt>
      <trkpt lat="38.19510681554675" lon="23.725125873461366">
        <ele>899.84</ele>
        <time>2025-05-29T04:42:20.605Z</time>
      </trkpt>
      <trkpt lat="38.195343017578125" lon="23.724868297576904">
        <ele>898.97</ele>
        <time>2025-05-29T04:42:21.640Z</time>
      </trkpt>
      <trkpt lat="38.19555767811835" lon="23.724782466888428">
        <ele>897.9</ele>
        <time>2025-05-29T04:42:22.682Z</time>
      </trkpt>
      <trkpt lat="38.19568634033203" lon="23.72471809387207">
        <ele>896.88</ele>
        <time>2025-05-29T04:42:23.729Z</time>
      </trkpt>
      <trkpt lat="38.19595045410097" lon="23.724675262346864">
        <ele>895.73</ele>
        <time>2025-05-29T04:42:24.785Z</time>
      </trkpt>
      <trkpt lat="38.1962145678699" lon="23.724632430821657">
        <ele>894.72</ele>
        <time>2025-05-29T04:42:25.849Z</time>
      </trkpt>
      <trkpt lat="38.19648027420044" lon="23.724589347839355">
        <ele>893.58</ele>
        <time>2025-05-29T04:42:26.922Z</time>
      </trkpt>
      <trkpt lat="38.196765845641494" lon="23.72468926012516">
        <ele>892.19</ele>
        <time>2025-05-29T04:42:28.005Z</time>
      </trkpt>
      <trkpt lat="38.19705141708255" lon="23.724789256229997">
        <ele>890.89</ele>
        <time>2025-05-29T04:42:29.098Z</time>
      </trkpt>
      <trkpt lat="38.197338581085205" lon="23.724889755249023">
        <ele>889.76</ele>
        <time>2025-05-29T04:42:30.201Z</time>
      </trkpt>
      <trkpt lat="38.19752055220306" lon="23.72492185793817">
        <ele>888.53</ele>
        <time>2025-05-29T04:42:31.310Z</time>
      </trkpt>
      <trkpt lat="38.19770336151123" lon="23.72495412826538">
        <ele>887.16</ele>
        <time>2025-05-29T04:42:32.425Z</time>
      </trkpt>
      <trkpt lat="38.19794962182641" lon="23.72494339942932">
        <ele>885.67</ele>
        <time>2025-05-29T04:42:33.548Z</time>
      </trkpt>
      <trkpt lat="38.19819688796997" lon="23.72493267059326">
        <ele>884.15</ele>
        <time>2025-05-29T04:42:34.680Z</time>
      </trkpt>
      <trkpt lat="38.1984181702137" lon="23.72489696368575">
        <ele>882.52</ele>
        <time>2025-05-29T04:42:35.819Z</time>
      </trkpt>
      <trkpt lat="38.19863945245743" lon="23.72486125677824">
        <ele>880.7</ele>
        <time>2025-05-29T04:42:36.966Z</time>
      </trkpt>
      <trkpt lat="38.198862075805664" lon="23.724825382232666">
        <ele>878.74</ele>
        <time>2025-05-29T04:42:38.120Z</time>
      </trkpt>
      <trkpt lat="38.19905485957861" lon="23.724718177691102">
        <ele>876.8</ele>
        <time>2025-05-29T04:42:39.281Z</time>
      </trkpt>
      <trkpt lat="38.19924831390381" lon="23.724610805511475">
        <ele>874.85</ele>
        <time>2025-05-29T04:42:40.449Z</time>
      </trkpt>
      <trkpt lat="38.19944101385772" lon="23.72454651631415">
        <ele>872.68</ele>
        <time>2025-05-29T04:42:41.624Z</time>
      </trkpt>
      <trkpt lat="38.19963455200195" lon="23.72448205947876">
        <ele>870.41</ele>
        <time>2025-05-29T04:42:42.805Z</time>
      </trkpt>
      <trkpt lat="38.19982725195587" lon="23.72443914413452">
        <ele>868.13</ele>
        <time>2025-05-29T04:42:43.993Z</time>
      </trkpt>
      <trkpt lat="38.2000207901001" lon="23.724396228790283">
        <ele>865.63</ele>
        <time>2025-05-29T04:42:45.187Z</time>
      </trkpt>
      <trkpt lat="38.20027828216553" lon="23.724396228790283">
        <ele>862.93</ele>
        <time>2025-05-29T04:42:46.390Z</time>
      </trkpt>
      <trkpt lat="38.20053577423096" lon="23.72426748275757">
        <ele>860.38</ele>
        <time>2025-05-29T04:42:47.602Z</time>
      </trkpt>
      <trkpt lat="38.20079695433378" lon="23.724288856610656">
        <ele>857.65</ele>
        <time>2025-05-29T04:42:48.823Z</time>
      </trkpt>
      <trkpt lat="38.20105821825564" lon="23.724310230463743">
        <ele>854.86</ele>
        <time>2025-05-29T04:42:50.053Z</time>
      </trkpt>
      <trkpt lat="38.201319482177496" lon="23.724331688135862">
        <ele>851.78</ele>
        <time>2025-05-29T04:42:51.291Z</time>
      </trkpt>
      <trkpt lat="38.20158074609935" lon="23.72435306198895">
        <ele>848.98</ele>
        <time>2025-05-29T04:42:52.538Z</time>
      </trkpt>
      <trkpt lat="38.201844692230225" lon="23.724374771118164">
        <ele>846.0</ele>
        <time>2025-05-29T04:42:53.794Z</time>
      </trkpt>
      <trkpt lat="38.20202683098614" lon="23.724503349512815">
        <ele>843.02</ele>
        <time>2025-05-29T04:42:55.057Z</time>
      </trkpt>
      <trkpt lat="38.20220947265625" lon="23.724632263183594">
        <ele>840.13</ele>
        <time>2025-05-29T04:42:56.327Z</time>
      </trkpt>
      <trkpt lat="38.20245229639113" lon="23.72478942386806">
        <ele>837.23</ele>
        <time>2025-05-29T04:42:57.606Z</time>
      </trkpt>
      <trkpt lat="38.20269520394504" lon="23.724946584552526">
        <ele>834.47</ele>
        <time>2025-05-29T04:42:58.894Z</time>
      </trkpt>
      <trkpt lat="38.2029390335083" lon="23.725104331970215">
        <ele>831.77</ele>
        <time>2025-05-29T04:43:00.191Z</time>
      </trkpt>
      <trkpt lat="38.2030463218689" lon="23.725404739379883">
        <ele>829.16</ele>
        <time>2025-05-29T04:43:01.497Z</time>
      </trkpt>
      <trkpt lat="38.20322871208191" lon="23.725640773773193">
        <ele>826.54</ele>
        <time>2025-05-29T04:43:02.811Z</time>
      </trkpt>
      <trkpt lat="38.20341110229492" lon="23.725876808166504">
        <ele>823.93</ele>
        <time>2025-05-29T04:43:04.134Z</time>
      </trkpt>
      <trkpt lat="38.2034969329834" lon="23.726069927215576">
        <ele>821.39</ele>
        <time>2025-05-29T04:43:05.463Z</time>
      </trkpt>
      <trkpt lat="38.20351839065552" lon="23.726327419281006">
        <ele>818.88</ele>
        <time>2025-05-29T04:43:06.799Z</time>
      </trkpt>
      <trkpt lat="38.20349684916437" lon="23.726574685424566">
        <ele>816.49</ele>
        <time>2025-05-29T04:43:08.141Z</time>
      </trkpt>
      <trkpt lat="38.20347547531128" lon="23.726820945739746">
        <ele>814.26</ele>
        <time>2025-05-29T04:43:09.490Z</time>
      </trkpt>
      <trkpt lat="38.203615033999085" lon="23.72706787660718">
        <ele>812.08</ele>
        <time>2025-05-29T04:43:10.847Z</time>
      </trkpt>
      <trkpt lat="38.20375442504883" lon="23.727314472198486">
        <ele>809.89</ele>
        <time>2025-05-29T04:43:12.212Z</time>
      </trkpt>
      <trkpt lat="38.2039475440979" lon="23.72746467590332">
        <ele>807.46</ele>
        <time>2025-05-29T04:43:13.584Z</time>
      </trkpt>
      <trkpt lat="38.204054832458496" lon="23.72767925262451">
        <ele>805.14</ele>
        <time>2025-05-29T04:43:14.963Z</time>
      </trkpt>
      <trkpt lat="38.204076290130615" lon="23.727915287017822">
        <ele>803.0</ele>
        <time>2025-05-29T04:43:16.348Z</time>
      </trkpt>
      <trkpt lat="38.20420503616333" lon="23.728022575378418">
        <ele>801.01</ele>
        <time>2025-05-29T04:43:17.738Z</time>
      </trkpt>
      <trkpt lat="38.2043981552124" lon="23.728108406066895">
        <ele>799.07</ele>
        <time>2025-05-29T04:43:19.135Z</time>
      </trkpt>
      <trkpt lat="38.20452690124512" lon="23.728312337771058">
        <ele>797.16</ele>
        <time>2025-05-29T04:43:20.539Z</time>
      </trkpt>
      <trkpt lat="38.20465564727783" lon="23.728516101837158">
        <ele>795.25</ele>
        <time>2025-05-29T04:43:21.950Z</time>
      </trkpt>
      <trkpt lat="38.20479495450854" lon="23.72861249372363">
        <ele>793.33</ele>
        <time>2025-05-29T04:43:23.366Z</time>
      </trkpt>
      <trkpt lat="38.20493459701538" lon="23.72870922088623">
        <ele>791.47</ele>
        <time>2025-05-29T04:43:24.787Z</time>
      </trkpt>
      <trkpt lat="38.2051648478955" lon="23.728801338002086">
        <ele>789.68</ele>
        <time>2025-05-29T04:43:26.216Z</time>
      </trkpt>
      <trkpt lat="38.20525646209717" lon="23.728837966918945">
        <ele>787.99</ele>
        <time>2025-05-29T04:43:27.649Z</time>
      </trkpt>
      <trkpt lat="38.20547103881836" lon="23.728859424591064">
        <ele>786.27</ele>
        <time>2025-05-29T04:43:29.089Z</time>
      </trkpt>
      <trkpt lat="38.20562124252319" lon="23.729116916656494">
        <ele>784.53</ele>
        <time>2025-05-29T04:43:30.537Z</time>
      </trkpt>
      <trkpt lat="38.20574998855591" lon="23.729277849197388">
        <ele>782.94</ele>
        <time>2025-05-29T04:43:31.991Z</time>
      </trkpt>
      <trkpt lat="38.20587873458862" lon="23.72943878173828">
        <ele>781.46</ele>
        <time>2025-05-29T04:43:33.451Z</time>
      </trkpt>
      <trkpt lat="38.20607193745673" lon="23.72973927296698">
        <ele>779.86</ele>
        <time>2025-05-29T04:43:34.921Z</time>
      </trkpt>
      <trkpt lat="38.20626497268677" lon="23.730039596557617">
        <ele>778.25</ele>
        <time>2025-05-29T04:43:36.402Z</time>
      </trkpt>
      <trkpt lat="38.20647954940796" lon="23.730318546295166">
        <ele>776.8</ele>
        <time>2025-05-29T04:43:37.893Z</time>
      </trkpt>
      <trkpt lat="38.20652254857123" lon="23.730587270110846">
        <ele>775.34</ele>
        <time>2025-05-29T04:43:39.391Z</time>
      </trkpt>
      <trkpt lat="38.206565380096436" lon="23.730854988098145">
        <ele>773.88</ele>
        <time>2025-05-29T04:43:40.896Z</time>
      </trkpt>
      <trkpt lat="38.20667266845703" lon="23.73102673329413">
        <ele>772.49</ele>
        <time>2025-05-29T04:43:42.407Z</time>
      </trkpt>
      <trkpt lat="38.20677995681763" lon="23.73119831085205">
        <ele>771.13</ele>
        <time>2025-05-29T04:43:43.924Z</time>
      </trkpt>
      <trkpt lat="38.20701565593481" lon="23.731341138482094">
        <ele>769.8</ele>
        <time>2025-05-29T04:43:45.449Z</time>
      </trkpt>
      <trkpt lat="38.207251355051994" lon="23.73148404993117">
        <ele>768.33</ele>
        <time>2025-05-29T04:43:46.983Z</time>
      </trkpt>
      <trkpt lat="38.20748805999756" lon="23.731627464294434">
        <ele>766.78</ele>
        <time>2025-05-29T04:43:48.526Z</time>
      </trkpt>
      <trkpt lat="38.20770263671875" lon="23.731863498687744">
        <ele>765.29</ele>
        <time>2025-05-29T04:43:50.078Z</time>
      </trkpt>
      <trkpt lat="38.207916878163815" lon="23.731992077082396">
        <ele>763.83</ele>
        <time>2025-05-29T04:43:51.638Z</time>
      </trkpt>
      <trkpt lat="38.20813179016113" lon="23.732120990753174">
        <ele>762.33</ele>
        <time>2025-05-29T04:43:53.206Z</time>
      </trkpt>
      <trkpt lat="38.208346366882324" lon="23.73220682144165">
        <ele>760.85</ele>
        <time>2025-05-29T04:43:54.782Z</time>
      </trkpt>
      <trkpt lat="38.208532109856606" lon="23.732335399836302">
        <ele>759.45</ele>
        <time>2025-05-29T04:43:56.365Z</time>
      </trkpt>
      <trkpt lat="38.20871785283089" lon="23.732463978230953">
        <ele>757.84</ele>
        <time>2025-05-29T04:43:57.955Z</time>
      </trkpt>
      <trkpt lat="38.20890426635742" lon="23.732593059539795">
        <ele>756.19</ele>
        <time>2025-05-29T04:43:59.552Z</time>
      </trkpt>
      <trkpt lat="38.209032928571105" lon="23.73271099291742">
        <ele>754.52</ele>
        <time>2025-05-29T04:44:01.154Z</time>
      </trkpt>
      <trkpt lat="38.20916175842285" lon="23.732829093933105">
        <ele>752.83</ele>
        <time>2025-05-29T04:44:02.761Z</time>
      </trkpt>
      <trkpt lat="38.20937633514404" lon="23.732914924621582">
        <ele>751.13</ele>
        <time>2025-05-29T04:44:04.376Z</time>
      </trkpt>
      <trkpt lat="38.20961186662316" lon="23.732973765581846">
        <ele>749.57</ele>
        <time>2025-05-29T04:44:05.999Z</time>
      </trkpt>
      <trkpt lat="38.209847481921315" lon="23.733032690361142">
        <ele>747.97</ele>
        <time>2025-05-29T04:44:07.630Z</time>
      </trkpt>
      <trkpt lat="38.21008309721947" lon="23.733091615140438">
        <ele>746.36</ele>
        <time>2025-05-29T04:44:09.269Z</time>
      </trkpt>
      <trkpt lat="38.210320472717285" lon="23.733150959014893">
        <ele>744.73</ele>
        <time>2025-05-29T04:44:10.916Z</time>
      </trkpt>
      <trkpt lat="38.21062088012695" lon="23.733129501342773">
        <ele>743.02</ele>
        <time>2025-05-29T04:44:12.573Z</time>
      </trkpt>
      <trkpt lat="38.21085641160607" lon="23.733193706721067">
        <ele>741.34</ele>
        <time>2025-05-29T04:44:14.238Z</time>
      </trkpt>
      <trkpt lat="38.211092026904225" lon="23.733257995918393">
        <ele>739.61</ele>
        <time>2025-05-29T04:44:15.911Z</time>
      </trkpt>
      <trkpt lat="38.211328983306885" lon="23.733322620391846">
        <ele>737.91</ele>
        <time>2025-05-29T04:44:17.592Z</time>
      </trkpt>
      <trkpt lat="38.21154314093292" lon="23.73340828344226">
        <ele>736.3</ele>
        <time>2025-05-29T04:44:19.281Z</time>
      </trkpt>
      <trkpt lat="38.21175813674927" lon="23.7334942817688">
        <ele>734.68</ele>
        <time>2025-05-29T04:44:20.977Z</time>
      </trkpt>
      <trkpt lat="38.212037086486816" lon="23.73345136642456">
        <ele>732.87</ele>
        <time>2025-05-29T04:44:22.682Z</time>
      </trkpt>
      <trkpt lat="38.21218729019165" lon="23.733322620391846">
        <ele>731.2</ele>
        <time>2025-05-29T04:44:24.394Z</time>
      </trkpt>
      <trkpt lat="38.21227312088013" lon="23.73321533203125">
        <ele>729.71</ele>
        <time>2025-05-29T04:44:26.110Z</time>
      </trkpt>
      <trkpt lat="38.21227320469916" lon="23.733129501342773">
        <ele>728.27</ele>
        <time>2025-05-29T04:44:27.828Z</time>
      </trkpt>
      <trkpt lat="38.21223012171686" lon="23.732849964872003">
        <ele>726.91</ele>
        <time>2025-05-29T04:44:29.553Z</time>
      </trkpt>
      <trkpt lat="38.21218729019165" lon="23.732571601867676">
        <ele>725.58</ele>
        <time>2025-05-29T04:44:31.286Z</time>
      </trkpt>
      <trkpt lat="38.21215854026377" lon="23.732205983251333">
        <ele>724.1</ele>
        <time>2025-05-29T04:44:33.028Z</time>
      </trkpt>
      <trkpt lat="38.212129874154925" lon="23.731840448454022">
        <ele>722.43</ele>
        <time>2025-05-29T04:44:34.780Z</time>
      </trkpt>
      <trkpt lat="38.212101459503174" lon="23.7314772605896">
        <ele>720.83</ele>
        <time>2025-05-29T04:44:36.542Z</time>
      </trkpt>
      <trkpt lat="38.21209064684808" lon="23.731262180954218">
        <ele>719.41</ele>
        <time>2025-05-29T04:44:38.309Z</time>
      </trkpt>
      <trkpt lat="38.212080001831055" lon="23.731048107147217">
        <ele>718.07</ele>
        <time>2025-05-29T04:44:40.082Z</time>
      </trkpt>
      <trkpt lat="38.212090730667114" lon="23.730811569839716">
        <ele>716.75</ele>
        <time>2025-05-29T04:44:41.861Z</time>
      </trkpt>
      <trkpt lat="38.212101459503174" lon="23.730576038360596">
        <ele>715.42</ele>
        <time>2025-05-29T04:44:43.646Z</time>
      </trkpt>
      <trkpt lat="38.212051251903176" lon="23.730210503563285">
        <ele>713.87</ele>
        <time>2025-05-29T04:44:45.441Z</time>
      </trkpt>
      <trkpt lat="38.21200104430318" lon="23.729844968765974">
        <ele>712.33</ele>
        <time>2025-05-29T04:44:47.246Z</time>
      </trkpt>
      <trkpt lat="38.21195125579834" lon="23.72948169708252">
        <ele>710.78</ele>
        <time>2025-05-29T04:44:49.061Z</time>
      </trkpt>
      <trkpt lat="38.21188671514392" lon="23.72925597243011">
        <ele>709.38</ele>
        <time>2025-05-29T04:44:50.882Z</time>
      </trkpt>
      <trkpt lat="38.211822509765625" lon="23.729031085968018">
        <ele>708.0</ele>
        <time>2025-05-29T04:44:52.709Z</time>
      </trkpt>
      <trkpt lat="38.211822509765625" lon="23.72865834273398">
        <ele>706.51</ele>
        <time>2025-05-29T04:44:54.546Z</time>
      </trkpt>
      <trkpt lat="38.211822509765625" lon="23.72828559949994">
        <ele>705.16</ele>
        <time>2025-05-29T04:44:56.393Z</time>
      </trkpt>
      <trkpt lat="38.211822509765625" lon="23.727915287017822">
        <ele>703.69</ele>
        <time>2025-05-29T04:44:58.249Z</time>
      </trkpt>
      <trkpt lat="38.211736511439085" lon="23.727603564038873">
        <ele>702.43</ele>
        <time>2025-05-29T04:45:00.114Z</time>
      </trkpt>
      <trkpt lat="38.21165084838867" lon="23.727293014526367">
        <ele>701.26</ele>
        <time>2025-05-29T04:45:01.988Z</time>
      </trkpt>
      <trkpt lat="38.2116149738431" lon="23.726999145001173">
        <ele>700.06</ele>
        <time>2025-05-29T04:45:03.870Z</time>
      </trkpt>
      <trkpt lat="38.21157909929752" lon="23.72670527547598">
        <ele>698.86</ele>
        <time>2025-05-29T04:45:05.759Z</time>
      </trkpt>
      <trkpt lat="38.211543560028076" lon="23.726413249969482">
        <ele>697.65</ele>
        <time>2025-05-29T04:45:07.656Z</time>
      </trkpt>
      <trkpt lat="38.211479019373655" lon="23.726148130372167">
        <ele>696.56</ele>
        <time>2025-05-29T04:45:09.560Z</time>
      </trkpt>
      <trkpt lat="38.211414562538266" lon="23.72588301077485">
        <ele>695.52</ele>
        <time>2025-05-29T04:45:11.472Z</time>
      </trkpt>
      <trkpt lat="38.211350440979004" lon="23.725619316101074">
        <ele>694.4</ele>
        <time>2025-05-29T04:45:13.391Z</time>
      </trkpt>
      <trkpt lat="38.211393440142274" lon="23.725307509303093">
        <ele>693.22</ele>
        <time>2025-05-29T04:45:15.318Z</time>
      </trkpt>
      <trkpt lat="38.21143635548651" lon="23.72499704360962">
        <ele>692.16</ele>
        <time>2025-05-29T04:45:17.254Z</time>
      </trkpt>
      <trkpt lat="38.21146854199469" lon="23.724658330902457">
        <ele>691.07</ele>
        <time>2025-05-29T04:45:19.199Z</time>
      </trkpt>
      <trkpt lat="38.2115008123219" lon="23.724319702014327">
        <ele>690.03</ele>
        <time>2025-05-29T04:45:21.152Z</time>
      </trkpt>
      <trkpt lat="38.21153299883008" lon="23.723981073126197">
        <ele>689.1</ele>
        <time>2025-05-29T04:45:23.114Z</time>
      </trkpt>
      <trkpt lat="38.211565017700195" lon="23.723645210266113">
        <ele>688.16</ele>
        <time>2025-05-29T04:45:25.085Z</time>
      </trkpt>
      <trkpt lat="38.211575746536255" lon="23.723255451768637">
        <ele>687.26</ele>
        <time>2025-05-29T04:45:27.067Z</time>
      </trkpt>
      <trkpt lat="38.211586475372314" lon="23.72286569327116">
        <ele>686.44</ele>
        <time>2025-05-29T04:45:29.059Z</time>
      </trkpt>
      <trkpt lat="38.211597204208374" lon="23.722475934773684">
        <ele>685.66</ele>
        <time>2025-05-29T04:45:31.061Z</time>
      </trkpt>
      <trkpt lat="38.211608016863465" lon="23.722086176276207">
        <ele>684.9</ele>
        <time>2025-05-29T04:45:33.073Z</time>
      </trkpt>
      <trkpt lat="38.211618745699525" lon="23.72169641777873">
        <ele>684.1</ele>
        <time>2025-05-29T04:45:35.096Z</time>
      </trkpt>
      <trkpt lat="38.211629474535584" lon="23.721306743100286">
        <ele>683.24</ele>
        <time>2025-05-29T04:45:37.129Z</time>
      </trkpt>
      <trkpt lat="38.211640287190676" lon="23.72091698460281">
        <ele>682.53</ele>
        <time>2025-05-29T04:45:39.172Z</time>
      </trkpt>
      <trkpt lat="38.21165084838867" lon="23.720533847808838">
        <ele>681.92</ele>
        <time>2025-05-29T04:45:41.225Z</time>
      </trkpt>
      <trkpt lat="38.21157557889819" lon="23.72017912566662">
        <ele>681.41</ele>
        <time>2025-05-29T04:45:43.288Z</time>
      </trkpt>
      <trkpt lat="38.21150064468384" lon="23.719825744628906">
        <ele>680.78</ele>
        <time>2025-05-29T04:45:45.360Z</time>
      </trkpt>
      <trkpt lat="38.21141481399536" lon="23.71950387954712">
        <ele>680.12</ele>
        <time>2025-05-29T04:45:47.441Z</time>
      </trkpt>
      <trkpt lat="38.211407605558634" lon="23.71917413547635">
        <ele>679.64</ele>
        <time>2025-05-29T04:45:49.531Z</time>
      </trkpt>
      <trkpt lat="38.211400397121906" lon="23.718844391405582">
        <ele>679.24</ele>
        <time>2025-05-29T04:45:51.630Z</time>
      </trkpt>
      <trkpt lat="38.21139335632324" lon="23.71851682662964">
        <ele>678.86</ele>
        <time>2025-05-29T04:45:53.737Z</time>
      </trkpt>
      <trkpt lat="38.21134775876999" lon="23.71823695488274">
        <ele>678.43</ele>
        <time>2025-05-29T04:45:55.852Z</time>
      </trkpt>
      <trkpt lat="38.21130224503577" lon="23.717957166954875">
        <ele>678.02</ele>
        <time>2025-05-29T04:45:57.974Z</time>
      </trkpt>
      <trkpt lat="38.21125698275864" lon="23.717679055407643">
        <ele>677.71</ele>
        <time>2025-05-29T04:46:00.104Z</time>
      </trkpt>
      <trkpt lat="38.21124315261841" lon="23.717594146728516">
        <ele>677.48</ele>
        <time>2025-05-29T04:46:02.236Z</time>
      </trkpt>
      <trkpt lat="38.21113586425781" lon="23.7174654006958">
        <ele>677.25</ele>
        <time>2025-05-29T04:46:04.373Z</time>
      </trkpt>
      <trkpt lat="38.21094308048487" lon="23.717422485351562">
        <ele>677.08</ele>
        <time>2025-05-29T04:46:06.516Z</time>
      </trkpt>
      <trkpt lat="38.21074962615967" lon="23.717379570007324">
        <ele>676.99</ele>
        <time>2025-05-29T04:46:08.666Z</time>
      </trkpt>
      <trkpt lat="38.210792541503906" lon="23.717036247253418">
        <ele>676.87</ele>
        <time>2025-05-29T04:46:10.825Z</time>
      </trkpt>
      <trkpt lat="38.21088801138103" lon="23.716762326657772">
        <ele>676.9</ele>
        <time>2025-05-29T04:46:12.992Z</time>
      </trkpt>
      <trkpt lat="38.210983565077186" lon="23.716488406062126">
        <ele>676.99</ele>
        <time>2025-05-29T04:46:15.167Z</time>
      </trkpt>
      <trkpt lat="38.211078783497214" lon="23.716215742751956">
        <ele>677.11</ele>
        <time>2025-05-29T04:46:17.350Z</time>
      </trkpt>
      <trkpt lat="38.21111440658569" lon="23.716113567352295">
        <ele>677.24</ele>
        <time>2025-05-29T04:46:19.536Z</time>
      </trkpt>
      <trkpt lat="38.21116813458502" lon="23.715909300372005">
        <ele>677.39</ele>
        <time>2025-05-29T04:46:21.727Z</time>
      </trkpt>
      <trkpt lat="38.21122169494629" lon="23.71570587158203">
        <ele>677.61</ele>
        <time>2025-05-29T04:46:23.924Z</time>
      </trkpt>
      <trkpt lat="38.21125388145447" lon="23.71545860543847">
        <ele>677.86</ele>
        <time>2025-05-29T04:46:26.128Z</time>
      </trkpt>
      <trkpt lat="38.21128606796265" lon="23.71521234512329">
        <ele>678.12</ele>
        <time>2025-05-29T04:46:28.338Z</time>
      </trkpt>
      <trkpt lat="38.21132185868919" lon="23.714896934106946">
        <ele>678.35</ele>
        <time>2025-05-29T04:46:30.556Z</time>
      </trkpt>
      <trkpt lat="38.21135773323476" lon="23.714581606909633">
        <ele>678.56</ele>
        <time>2025-05-29T04:46:32.783Z</time>
      </trkpt>
      <trkpt lat="38.21139335632324" lon="23.71426820755005">
        <ele>678.83</ele>
        <time>2025-05-29T04:46:35.018Z</time>
      </trkpt>
      <trkpt lat="38.21139335632324" lon="23.71398146264255">
        <ele>679.09</ele>
        <time>2025-05-29T04:46:37.261Z</time>
      </trkpt>
      <trkpt lat="38.21139335632324" lon="23.713694717735052">
        <ele>679.35</ele>
        <time>2025-05-29T04:46:39.511Z</time>
      </trkpt>
      <trkpt lat="38.21139335632324" lon="23.713409900665283">
        <ele>679.64</ele>
        <time>2025-05-29T04:46:41.769Z</time>
      </trkpt>
      <trkpt lat="38.21142017841339" lon="23.71308191679418">
        <ele>679.86</ele>
        <time>2025-05-29T04:46:44.035Z</time>
      </trkpt>
      <trkpt lat="38.21144708432257" lon="23.71275401674211">
        <ele>680.01</ele>
        <time>2025-05-29T04:46:46.310Z</time>
      </trkpt>
      <trkpt lat="38.21147399023175" lon="23.71242611669004">
        <ele>680.11</ele>
        <time>2025-05-29T04:46:48.594Z</time>
      </trkpt>
      <trkpt lat="38.21150064468384" lon="23.712100982666016">
        <ele>680.16</ele>
        <time>2025-05-29T04:46:50.886Z</time>
      </trkpt>
      <trkpt lat="38.21162939071655" lon="23.71173620223999">
        <ele>680.16</ele>
        <time>2025-05-29T04:46:53.189Z</time>
      </trkpt>
      <trkpt lat="38.21167230606079" lon="23.711435794830322">
        <ele>680.08</ele>
        <time>2025-05-29T04:46:55.500Z</time>
      </trkpt>
      <trkpt lat="38.21161849424243" lon="23.711220799013972">
        <ele>679.92</ele>
        <time>2025-05-29T04:46:57.817Z</time>
      </trkpt>
      <trkpt lat="38.211565017700195" lon="23.71100664138794">
        <ele>679.62</ele>
        <time>2025-05-29T04:47:00.140Z</time>
      </trkpt>
      <trkpt lat="38.211565017700195" lon="23.71072769165039">
        <ele>679.18</ele>
        <time>2025-05-29T04:47:02.470Z</time>
      </trkpt>
      <trkpt lat="38.21150072850287" lon="23.71049165725708">
        <ele>678.63</ele>
        <time>2025-05-29T04:47:04.807Z</time>
      </trkpt>
      <trkpt lat="38.211350524798036" lon="23.710148334503174">
        <ele>678.03</ele>
        <time>2025-05-29T04:47:07.154Z</time>
      </trkpt>
      <trkpt lat="38.21118590421975" lon="23.70993367396295">
        <ele>677.27</ele>
        <time>2025-05-29T04:47:09.509Z</time>
      </trkpt>
      <trkpt lat="38.21102136746049" lon="23.70971909724176">
        <ele>676.38</ele>
        <time>2025-05-29T04:47:11.872Z</time>
      </trkpt>
      <trkpt lat="38.210856914520264" lon="23.7095046043396">
        <ele>675.31</ele>
        <time>2025-05-29T04:47:14.242Z</time>
      </trkpt>
      <trkpt lat="38.21077108383179" lon="23.709332942962646">
        <ele>674.14</ele>
        <time>2025-05-29T04:47:16.618Z</time>
      </trkpt>
      <trkpt lat="38.21068525314331" lon="23.709311485290527">
        <ele>672.8</ele>
        <time>2025-05-29T04:47:18.997Z</time>
      </trkpt>
      <trkpt lat="38.21064233779907" lon="23.70920419692993">
        <ele>671.37</ele>
        <time>2025-05-29T04:47:21.379Z</time>
      </trkpt>
      <trkpt lat="38.21051359176636" lon="23.709139823913574">
        <ele>669.76</ele>
        <time>2025-05-29T04:47:23.765Z</time>
      </trkpt>
      <trkpt lat="38.21040630340576" lon="23.708925247192383">
        <ele>668.04</ele>
        <time>2025-05-29T04:47:26.158Z</time>
      </trkpt>
      <trkpt lat="38.210159707814455" lon="23.708710754290223">
        <ele>666.17</ele>
        <time>2025-05-29T04:47:28.561Z</time>
      </trkpt>
      <trkpt lat="38.20991277694702" lon="23.70849609375">
        <ele>664.21</ele>
        <time>2025-05-29T04:47:30.974Z</time>
      </trkpt>
      <trkpt lat="38.20976257324219" lon="23.708431720733643">
        <ele>662.33</ele>
        <time>2025-05-29T04:47:33.392Z</time>
      </trkpt>
      <trkpt lat="38.209590911865234" lon="23.708195686340332">
        <ele>660.37</ele>
        <time>2025-05-29T04:47:35.819Z</time>
      </trkpt>
      <trkpt lat="38.209354877471924" lon="23.707938194274902">
        <ele>658.43</ele>
        <time>2025-05-29T04:47:38.256Z</time>
      </trkpt>
      <trkpt lat="38.20920484140515" lon="23.707863176241517">
        <ele>656.56</ele>
        <time>2025-05-29T04:47:40.698Z</time>
      </trkpt>
      <trkpt lat="38.209054470062256" lon="23.70778799057007">
        <ele>654.73</ele>
        <time>2025-05-29T04:47:43.146Z</time>
      </trkpt>
      <trkpt lat="38.20892572402954" lon="23.707573413848877">
        <ele>652.88</ele>
        <time>2025-05-29T04:47:45.601Z</time>
      </trkpt>
      <trkpt lat="38.20873260498047" lon="23.707423210144043">
        <ele>651.33</ele>
        <time>2025-05-29T04:47:48.063Z</time>
      </trkpt>
      <trkpt lat="38.2087326887995" lon="23.707423210144043">
        <ele>650.16</ele>
        <time>2025-05-29T04:47:50.526Z</time>
      </trkpt>
      <trkpt lat="38.20866823196411" lon="23.707165718078613">
        <ele>649.15</ele>
        <time>2025-05-29T04:47:52.996Z</time>
      </trkpt>
      <trkpt lat="38.208560943603516" lon="23.7070369720459">
        <ele>648.38</ele>
        <time>2025-05-29T04:47:55.471Z</time>
      </trkpt>
      <trkpt lat="38.208303451538086" lon="23.706843852996826">
        <ele>647.98</ele>
        <time>2025-05-29T04:47:57.955Z</time>
      </trkpt>
      <trkpt lat="38.208303451538086" lon="23.70650053024292">
        <ele>647.66</ele>
        <time>2025-05-29T04:48:00.449Z</time>
      </trkpt>
      <trkpt lat="38.20823907852173" lon="23.706350326538086">
        <ele>647.6</ele>
        <time>2025-05-29T04:48:02.947Z</time>
      </trkpt>
      <trkpt lat="38.20813179016113" lon="23.70624303817749">
        <ele>647.78</ele>
        <time>2025-05-29T04:48:05.450Z</time>
      </trkpt>
      <trkpt lat="38.20805652067065" lon="23.705985127016902">
        <ele>648.21</ele>
        <time>2025-05-29T04:48:07.960Z</time>
      </trkpt>
      <trkpt lat="38.2079815864563" lon="23.70572805404663">
        <ele>648.87</ele>
        <time>2025-05-29T04:48:10.477Z</time>
      </trkpt>
      <trkpt lat="38.20789575576782" lon="23.705599308013916">
        <ele>649.75</ele>
        <time>2025-05-29T04:48:12.998Z</time>
      </trkpt>
      <trkpt lat="38.207831382751465" lon="23.705384731292725">
        <ele>650.88</ele>
        <time>2025-05-29T04:48:15.525Z</time>
      </trkpt>
      <trkpt lat="38.207831382751465" lon="23.705029925331473">
        <ele>652.26</ele>
        <time>2025-05-29T04:48:18.062Z</time>
      </trkpt>
      <trkpt lat="38.207831382751465" lon="23.704676628112793">
        <ele>653.73</ele>
        <time>2025-05-29T04:48:20.608Z</time>
      </trkpt>
      <trkpt lat="38.2078742980957" lon="23.704333305358887">
        <ele>655.21</ele>
        <time>2025-05-29T04:48:23.163Z</time>
      </trkpt>
      <trkpt lat="38.20794948376715" lon="23.70415066368878">
        <ele>656.72</ele>
        <time>2025-05-29T04:48:25.724Z</time>
      </trkpt>
      <trkpt lat="38.20802450180054" lon="23.70396852493286">
        <ele>658.41</ele>
        <time>2025-05-29T04:48:28.290Z</time>
      </trkpt>
      <trkpt lat="38.208088874816895" lon="23.703668117523193">
        <ele>660.41</ele>
        <time>2025-05-29T04:48:30.864Z</time>
      </trkpt>
      <trkpt lat="38.208104968070984" lon="23.70336703956127">
        <ele>662.72</ele>
        <time>2025-05-29T04:48:33.446Z</time>
      </trkpt>
      <trkpt lat="38.20812106132507" lon="23.70306596159935">
        <ele>665.05</ele>
        <time>2025-05-29T04:48:36.036Z</time>
      </trkpt>
      <trkpt lat="38.208137238398194" lon="23.70276496745646">
        <ele>667.23</ele>
        <time>2025-05-29T04:48:38.634Z</time>
      </trkpt>
      <trkpt lat="38.20815324783325" lon="23.70246648788452">
        <ele>669.29</ele>
        <time>2025-05-29T04:48:41.240Z</time>
      </trkpt>
      <trkpt lat="38.208081582561135" lon="23.702179826796055">
        <ele>671.67</ele>
        <time>2025-05-29T04:48:43.854Z</time>
      </trkpt>
      <trkpt lat="38.20800991728902" lon="23.70189324952662">
        <ele>674.09</ele>
        <time>2025-05-29T04:48:46.476Z</time>
      </trkpt>
      <trkpt lat="38.20793867111206" lon="23.701608180999756">
        <ele>676.53</ele>
        <time>2025-05-29T04:48:49.105Z</time>
      </trkpt>
      <trkpt lat="38.207799112424254" lon="23.701414978131652">
        <ele>679.25</ele>
        <time>2025-05-29T04:48:51.741Z</time>
      </trkpt>
      <trkpt lat="38.20765972137451" lon="23.70122194290161">
        <ele>681.82</ele>
        <time>2025-05-29T04:48:54.384Z</time>
      </trkpt>
      <trkpt lat="38.20748805999756" lon="23.701093196868896">
        <ele>684.58</ele>
        <time>2025-05-29T04:48:57.034Z</time>
      </trkpt>
      <trkpt lat="38.207337856292725" lon="23.701093196868896">
        <ele>687.24</ele>
        <time>2025-05-29T04:48:59.689Z</time>
      </trkpt>
      <trkpt lat="38.20720911026001" lon="23.70100736618042">
        <ele>689.62</ele>
        <time>2025-05-29T04:49:02.349Z</time>
      </trkpt>
      <trkpt lat="38.20715529844165" lon="23.70079237036407">
        <ele>691.63</ele>
        <time>2025-05-29T04:49:05.015Z</time>
      </trkpt>
      <trkpt lat="38.207101821899414" lon="23.700578212738037">
        <ele>693.43</ele>
        <time>2025-05-29T04:49:07.687Z</time>
      </trkpt>
      <trkpt lat="38.206972908228636" lon="23.700352739542723">
        <ele>695.13</ele>
        <time>2025-05-29T04:49:10.366Z</time>
      </trkpt>
      <trkpt lat="38.206844329833984" lon="23.700127601623535">
        <ele>696.76</ele>
        <time>2025-05-29T04:49:13.052Z</time>
      </trkpt>
      <trkpt lat="38.206608295440674" lon="23.699955940246582">
        <ele>698.23</ele>
        <time>2025-05-29T04:49:15.747Z</time>
      </trkpt>
      <trkpt lat="38.206307888031006" lon="23.699913024902344">
        <ele>699.8</ele>
        <time>2025-05-29T04:49:18.452Z</time>
      </trkpt>
      <trkpt lat="38.20617914199829" lon="23.699805736541748">
        <ele>701.16</ele>
        <time>2025-05-29T04:49:21.162Z</time>
      </trkpt>
      <trkpt lat="38.20599700324237" lon="23.699741447344422">
        <ele>702.56</ele>
        <time>2025-05-29T04:49:23.879Z</time>
      </trkpt>
      <trkpt lat="38.205814361572266" lon="23.699676990509033">
        <ele>703.84</ele>
        <time>2025-05-29T04:49:26.602Z</time>
      </trkpt>
      <trkpt lat="38.205664325505495" lon="23.69958051480353">
        <ele>705.04</ele>
        <time>2025-05-29T04:49:29.331Z</time>
      </trkpt>
      <trkpt lat="38.2055139541626" lon="23.69948387145996">
        <ele>706.23</ele>
        <time>2025-05-29T04:49:32.065Z</time>
      </trkpt>
      <trkpt lat="38.205385291948915" lon="23.69948387145996">
        <ele>707.49</ele>
        <time>2025-05-29T04:49:34.804Z</time>
      </trkpt>
      <trkpt lat="38.20527791976929" lon="23.699398040771484">
        <ele>708.75</ele>
        <time>2025-05-29T04:49:37.547Z</time>
      </trkpt>
      <trkpt lat="38.20502042770386" lon="23.699440956115723">
        <ele>710.22</ele>
        <time>2025-05-29T04:49:40.298Z</time>
      </trkpt>
      <trkpt lat="38.20491313934326" lon="23.69948387145996">
        <ele>711.7</ele>
        <time>2025-05-29T04:49:43.053Z</time>
      </trkpt>
      <trkpt lat="38.20474147796631" lon="23.699440956115723">
        <ele>713.46</ele>
        <time>2025-05-29T04:49:45.814Z</time>
      </trkpt>
      <trkpt lat="38.20463418960571" lon="23.69950532913208">
        <ele>715.15</ele>
        <time>2025-05-29T04:49:48.579Z</time>
      </trkpt>
      <trkpt lat="38.20445213466883" lon="23.699548160657287">
        <ele>717.0</ele>
        <time>2025-05-29T04:49:51.350Z</time>
      </trkpt>
      <trkpt lat="38.20426940917969" lon="23.699591159820557">
        <ele>718.79</ele>
        <time>2025-05-29T04:49:54.127Z</time>
      </trkpt>
      <trkpt lat="38.20410864427686" lon="23.69951614178717">
        <ele>720.69</ele>
        <time>2025-05-29T04:49:56.910Z</time>
      </trkpt>
      <trkpt lat="38.2039475440979" lon="23.699440956115723">
        <ele>722.74</ele>
        <time>2025-05-29T04:49:59.699Z</time>
      </trkpt>
      <trkpt lat="38.20377588272095" lon="23.699312210083008">
        <ele>724.86</ele>
        <time>2025-05-29T04:50:02.494Z</time>
      </trkpt>
      <trkpt lat="38.203550996258855" lon="23.69928002357483">
        <ele>726.81</ele>
        <time>2025-05-29T04:50:05.297Z</time>
      </trkpt>
      <trkpt lat="38.203325271606445" lon="23.69924783706665">
        <ele>728.97</ele>
        <time>2025-05-29T04:50:08.107Z</time>
      </trkpt>
      <trkpt lat="38.20319652557373" lon="23.699140548706055">
        <ele>730.86</ele>
        <time>2025-05-29T04:50:10.923Z</time>
      </trkpt>
      <trkpt lat="38.202982284128666" lon="23.69921548292041">
        <ele>732.84</ele>
        <time>2025-05-29T04:50:13.746Z</time>
      </trkpt>
      <trkpt lat="38.20276737213135" lon="23.69929075241089">
        <ele>734.69</ele>
        <time>2025-05-29T04:50:16.576Z</time>
      </trkpt>
      <trkpt lat="38.20276745595038" lon="23.69929075241089">
        <ele>736.64</ele>
        <time>2025-05-29T04:50:19.406Z</time>
      </trkpt>
      <trkpt lat="38.202595710754395" lon="23.69929075241089">
        <ele>738.74</ele>
        <time>2025-05-29T04:50:22.242Z</time>
      </trkpt>
      <trkpt lat="38.202359676361084" lon="23.699162006378174">
        <ele>740.84</ele>
        <time>2025-05-29T04:50:25.087Z</time>
      </trkpt>
      <trkpt lat="38.20220947265625" lon="23.69901180267334">
        <ele>743.06</ele>
        <time>2025-05-29T04:50:27.938Z</time>
      </trkpt>
      <trkpt lat="38.20215566083789" lon="23.69876453652978">
        <ele>745.14</ele>
        <time>2025-05-29T04:50:30.796Z</time>
      </trkpt>
      <trkpt lat="38.202102184295654" lon="23.6985182762146">
        <ele>747.26</ele>
        <time>2025-05-29T04:50:33.661Z</time>
      </trkpt>
      <trkpt lat="38.20201635360718" lon="23.698410987854004">
        <ele>749.53</ele>
        <time>2025-05-29T04:50:36.530Z</time>
      </trkpt>
      <trkpt lat="38.20178031921387" lon="23.698325157165527">
        <ele>752.08</ele>
        <time>2025-05-29T04:50:39.407Z</time>
      </trkpt>
      <trkpt lat="38.20171594619751" lon="23.698067665100098">
        <ele>754.39</ele>
        <time>2025-05-29T04:50:42.291Z</time>
      </trkpt>
      <trkpt lat="38.201587200164795" lon="23.697960376739502">
        <ele>756.94</ele>
        <time>2025-05-29T04:50:45.180Z</time>
      </trkpt>
      <trkpt lat="38.20143699645996" lon="23.697702884674072">
        <ele>759.45</ele>
        <time>2025-05-29T04:50:48.077Z</time>
      </trkpt>
      <trkpt lat="38.2013831846416" lon="23.697434160858393">
        <ele>761.9</ele>
        <time>2025-05-29T04:50:50.982Z</time>
      </trkpt>
      <trkpt lat="38.201329708099365" lon="23.697166442871094">
        <ele>764.38</ele>
        <time>2025-05-29T04:50:53.894Z</time>
      </trkpt>
      <trkpt lat="38.20120096206665" lon="23.696887493133545">
        <ele>766.95</ele>
        <time>2025-05-29T04:50:56.814Z</time>
      </trkpt>
      <trkpt lat="38.20126533508301" lon="23.696672916412354">
        <ele>769.23</ele>
        <time>2025-05-29T04:50:59.740Z</time>
      </trkpt>
      <trkpt lat="38.201115131378174" lon="23.696436882019043">
        <ele>771.88</ele>
        <time>2025-05-29T04:51:02.674Z</time>
      </trkpt>
      <trkpt lat="38.201072216033936" lon="23.696072101593018">
        <ele>774.44</ele>
        <time>2025-05-29T04:51:05.618Z</time>
      </trkpt>
      <trkpt lat="38.2009220123291" lon="23.695814609527588">
        <ele>777.21</ele>
        <time>2025-05-29T04:51:08.570Z</time>
      </trkpt>
      <trkpt lat="38.20073953829706" lon="23.695578491315246">
        <ele>779.8</ele>
        <time>2025-05-29T04:51:11.531Z</time>
      </trkpt>
      <trkpt lat="38.200557231903076" lon="23.695342540740967">
        <ele>781.77</ele>
        <time>2025-05-29T04:51:14.501Z</time>
      </trkpt>
      <trkpt lat="38.200519597157836" lon="23.69546676054597">
        <ele>783.54</ele>
        <time>2025-05-29T04:51:17.474Z</time>
      </trkpt>
      <trkpt lat="38.20043091662228" lon="23.695759121328592">
        <ele>785.14</ele>
        <time>2025-05-29T04:51:20.456Z</time>
      </trkpt>
      <trkpt lat="38.200342655181885" lon="23.6960506439209">
        <ele>786.54</ele>
        <time>2025-05-29T04:51:23.446Z</time>
      </trkpt>
      <trkpt lat="38.20021390914917" lon="23.69626522064209">
        <ele>787.77</ele>
        <time>2025-05-29T04:51:26.443Z</time>
      </trkpt>
      <trkpt lat="38.20004224777222" lon="23.696458339691162">
        <ele>788.73</ele>
        <time>2025-05-29T04:51:29.448Z</time>
      </trkpt>
      <trkpt lat="38.19986002519727" lon="23.696597646921873">
        <ele>789.42</ele>
        <time>2025-05-29T04:51:32.460Z</time>
      </trkpt>
      <trkpt lat="38.19967746734619" lon="23.69673728942871">
        <ele>789.98</ele>
        <time>2025-05-29T04:51:35.479Z</time>
      </trkpt>
      <trkpt lat="38.199554001912475" lon="23.696894282475114">
        <ele>790.38</ele>
        <time>2025-05-29T04:51:38.504Z</time>
      </trkpt>
      <trkpt lat="38.19943070411682" lon="23.69705135934055">
        <ele>790.65</ele>
        <time>2025-05-29T04:51:41.534Z</time>
      </trkpt>
      <trkpt lat="38.199554085731506" lon="23.696894282475114">
        <ele>790.8</ele>
        <time>2025-05-29T04:51:44.570Z</time>
      </trkpt>
      <trkpt lat="38.19967746734619" lon="23.69673728942871">
        <ele>789.98</ele>
        <time>2025-05-29T04:51:47.612Z</time>
      </trkpt>
      <trkpt lat="38.19985960610211" lon="23.69659789837897">
        <ele>790.73</ele>
        <time>2025-05-29T04:51:50.661Z</time>
      </trkpt>
      <trkpt lat="38.20004224777222" lon="23.696458339691162">
        <ele>788.73</ele>
        <time>2025-05-29T04:51:53.717Z</time>
      </trkpt>
      <trkpt lat="38.20021390914917" lon="23.69626522064209">
        <ele>787.77</ele>
        <time>2025-05-29T04:51:56.781Z</time>
      </trkpt>
      <trkpt lat="38.19997804239392" lon="23.69646890088916">
        <ele>789.3</ele>
        <time>2025-05-29T04:51:59.854Z</time>
      </trkpt>
      <trkpt lat="38.19974184036255" lon="23.696672916412354">
        <ele>788.31</ele>
        <time>2025-05-29T04:52:02.937Z</time>
      </trkpt>
      <trkpt lat="38.199613094329834" lon="23.696823036298156">
        <ele>787.31</ele>
        <time>2025-05-29T04:52:06.026Z</time>
      </trkpt>
      <trkpt lat="38.19948434829712" lon="23.69697332382202">
        <ele>786.18</ele>
        <time>2025-05-29T04:52:09.121Z</time>
      </trkpt>
      <trkpt lat="38.199334144592285" lon="23.69701623916626">
        <ele>784.93</ele>
        <time>2025-05-29T04:52:12.221Z</time>
      </trkpt>
      <trkpt lat="38.19917513988912" lon="23.697006851434708">
        <ele>783.55</ele>
        <time>2025-05-29T04:52:15.326Z</time>
      </trkpt>
      <trkpt lat="38.199015548452735" lon="23.696997463703156">
        <ele>782.07</ele>
        <time>2025-05-29T04:52:18.436Z</time>
      </trkpt>
      <trkpt lat="38.19896936416626" lon="23.69699478149414">
        <ele>780.55</ele>
        <time>2025-05-29T04:52:21.548Z</time>
      </trkpt>
      <trkpt lat="38.198840618133545" lon="23.697102069854736">
        <ele>778.97</ele>
        <time>2025-05-29T04:52:24.665Z</time>
      </trkpt>
      <trkpt lat="38.19872117601335" lon="23.697136184200644">
        <ele>777.27</ele>
        <time>2025-05-29T04:52:27.786Z</time>
      </trkpt>
      <trkpt lat="38.19869041442871" lon="23.697144985198975">
        <ele>775.55</ele>
        <time>2025-05-29T04:52:30.908Z</time>
      </trkpt>
      <trkpt lat="38.19854021072388" lon="23.697144985198975">
        <ele>773.67</ele>
        <time>2025-05-29T04:52:34.035Z</time>
      </trkpt>
      <trkpt lat="38.198379362002015" lon="23.697262834757566">
        <ele>771.8</ele>
        <time>2025-05-29T04:52:37.168Z</time>
      </trkpt>
      <trkpt lat="38.19821834564209" lon="23.697381019592285">
        <ele>769.87</ele>
        <time>2025-05-29T04:52:40.307Z</time>
      </trkpt>
      <trkpt lat="38.198221530765295" lon="23.697453942149878">
        <ele>768.04</ele>
        <time>2025-05-29T04:52:43.448Z</time>
      </trkpt>
      <trkpt lat="38.198221530765295" lon="23.697453858330846">
        <ele>766.24</ele>
        <time>2025-05-29T04:52:46.589Z</time>
      </trkpt>
      <trkpt lat="38.19823066703975" lon="23.69766457937658">
        <ele>764.33</ele>
        <time>2025-05-29T04:52:49.736Z</time>
      </trkpt>
      <trkpt lat="38.19823980331421" lon="23.697874546051025">
        <ele>762.45</ele>
        <time>2025-05-29T04:52:52.888Z</time>
      </trkpt>
      <trkpt lat="38.19817543029785" lon="23.698067665100098">
        <ele>760.67</ele>
        <time>2025-05-29T04:52:56.046Z</time>
      </trkpt>
      <trkpt lat="38.19814315997064" lon="23.698089625686407">
        <ele>759.02</ele>
        <time>2025-05-29T04:52:59.205Z</time>
      </trkpt>
      <trkpt lat="38.19789136759937" lon="23.69826078414917">
        <ele>757.36</ele>
        <time>2025-05-29T04:53:02.374Z</time>
      </trkpt>
      <trkpt lat="38.197639072313905" lon="23.698432445526123">
        <ele>755.81</ele>
        <time>2025-05-29T04:53:05.552Z</time>
      </trkpt>
      <trkpt lat="38.19734989665449" lon="23.698421716690063">
        <ele>754.32</ele>
        <time>2025-05-29T04:53:08.740Z</time>
      </trkpt>
      <trkpt lat="38.197059631347656" lon="23.698410987854004">
        <ele>753.1</ele>
        <time>2025-05-29T04:53:11.938Z</time>
      </trkpt>
      <trkpt lat="38.19690942764282" lon="23.698346614837646">
        <ele>752.17</ele>
        <time>2025-05-29T04:53:15.141Z</time>
      </trkpt>
      <trkpt lat="38.19672720506787" lon="23.69846446439624">
        <ele>751.51</ele>
        <time>2025-05-29T04:53:18.351Z</time>
      </trkpt>
      <trkpt lat="38.1965446472168" lon="23.698582649230957">
        <ele>751.06</ele>
        <time>2025-05-29T04:53:21.567Z</time>
      </trkpt>
      <trkpt lat="38.19644800387323" lon="23.698765123263">
        <ele>750.91</ele>
        <time>2025-05-29T04:53:24.789Z</time>
      </trkpt>
      <trkpt lat="38.196351528167725" lon="23.698947429656982">
        <ele>750.91</ele>
        <time>2025-05-29T04:53:28.017Z</time>
      </trkpt>
      <trkpt lat="38.19620132446289" lon="23.699140548706055">
        <ele>751.19</ele>
        <time>2025-05-29T04:53:31.252Z</time>
      </trkpt>
      <trkpt lat="38.196135526522994" lon="23.699188074097037">
        <ele>751.51</ele>
        <time>2025-05-29T04:53:34.490Z</time>
      </trkpt>
      <trkpt lat="38.19597543217242" lon="23.699303660541773">
        <ele>752.03</ele>
        <time>2025-05-29T04:53:37.734Z</time>
      </trkpt>
      <trkpt lat="38.195815086364746" lon="23.699419498443604">
        <ele>752.66</ele>
        <time>2025-05-29T04:53:40.984Z</time>
      </trkpt>
      <trkpt lat="38.19565415382385" lon="23.699612533673644">
        <ele>753.51</ele>
        <time>2025-05-29T04:53:44.241Z</time>
      </trkpt>
      <trkpt lat="38.19549322128296" lon="23.699805736541748">
        <ele>754.6</ele>
        <time>2025-05-29T04:53:47.506Z</time>
      </trkpt>
      <trkpt lat="38.19540739059448" lon="23.699870109558105">
        <ele>755.81</ele>
        <time>2025-05-29T04:53:50.774Z</time>
      </trkpt>
      <trkpt lat="38.195214523002505" lon="23.699977230280638">
        <ele>757.22</ele>
        <time>2025-05-29T04:53:54.049Z</time>
      </trkpt>
      <trkpt lat="38.19502165541053" lon="23.70008435100317">
        <ele>758.81</ele>
        <time>2025-05-29T04:53:57.331Z</time>
      </trkpt>
      <trkpt lat="38.194828033447266" lon="23.700191974639893">
        <ele>760.53</ele>
        <time>2025-05-29T04:54:00.620Z</time>
      </trkpt>
      <trkpt lat="38.19467782974243" lon="23.70023488998413">
        <ele>762.35</ele>
        <time>2025-05-29T04:54:03.914Z</time>
      </trkpt>
      <trkpt lat="38.19448479451239" lon="23.700363636016846">
        <ele>764.48</ele>
        <time>2025-05-29T04:54:07.215Z</time>
      </trkpt>
      <trkpt lat="38.194420337677" lon="23.700428009033203">
        <ele>766.58</ele>
        <time>2025-05-29T04:54:10.519Z</time>
      </trkpt>
      <trkpt lat="38.19439888000488" lon="23.700578212738037">
        <ele>768.76</ele>
        <time>2025-05-29T04:54:13.827Z</time>
      </trkpt>
      <trkpt lat="38.194377422332764" lon="23.700878620147705">
        <ele>771.01</ele>
        <time>2025-05-29T04:54:17.143Z</time>
      </trkpt>
      <trkpt lat="38.19427013397217" lon="23.7009859085083">
        <ele>773.29</ele>
        <time>2025-05-29T04:54:20.464Z</time>
      </trkpt>
      <trkpt lat="38.19413057528436" lon="23.701200569048524">
        <ele>775.68</ele>
        <time>2025-05-29T04:54:23.792Z</time>
      </trkpt>
      <trkpt lat="38.19399118423462" lon="23.701415061950684">
        <ele>778.28</ele>
        <time>2025-05-29T04:54:27.127Z</time>
      </trkpt>
      <trkpt lat="38.19394810125232" lon="23.701759055256844">
        <ele>780.76</ele>
        <time>2025-05-29T04:54:30.471Z</time>
      </trkpt>
      <trkpt lat="38.19390535354614" lon="23.702101707458496">
        <ele>783.23</ele>
        <time>2025-05-29T04:54:33.825Z</time>
      </trkpt>
      <trkpt lat="38.193862438201904" lon="23.70225191116333">
        <ele>785.68</ele>
        <time>2025-05-29T04:54:37.183Z</time>
      </trkpt>
      <trkpt lat="38.193873167037964" lon="23.70261744596064">
        <ele>788.43</ele>
        <time>2025-05-29T04:54:40.550Z</time>
      </trkpt>
      <trkpt lat="38.19388389587402" lon="23.70298147201538">
        <ele>791.15</ele>
        <time>2025-05-29T04:54:43.927Z</time>
      </trkpt>
      <trkpt lat="38.193840980529785" lon="23.703196048736572">
        <ele>793.75</ele>
        <time>2025-05-29T04:54:47.310Z</time>
      </trkpt>
      <trkpt lat="38.19373369216919" lon="23.703324794769287">
        <ele>796.33</ele>
        <time>2025-05-29T04:54:50.698Z</time>
      </trkpt>
      <trkpt lat="38.19369077682495" lon="23.703453540802002">
        <ele>798.86</ele>
        <time>2025-05-29T04:54:54.089Z</time>
      </trkpt>
      <trkpt lat="38.193604946136475" lon="23.703582286834717">
        <ele>801.38</ele>
        <time>2025-05-29T04:54:57.485Z</time>
      </trkpt>
      <trkpt lat="38.19354057312012" lon="23.70375394821167">
        <ele>803.96</ele>
        <time>2025-05-29T04:55:00.886Z</time>
      </trkpt>
      <trkpt lat="38.19337955676019" lon="23.70400079526007">
        <ele>806.65</ele>
        <time>2025-05-29T04:55:04.295Z</time>
      </trkpt>
      <trkpt lat="38.19321854040027" lon="23.704247642308474">
        <ele>809.2</ele>
        <time>2025-05-29T04:55:07.713Z</time>
      </trkpt>
      <trkpt lat="38.19305752404034" lon="23.704494489356875">
        <ele>811.86</ele>
        <time>2025-05-29T04:55:11.139Z</time>
      </trkpt>
      <trkpt lat="38.19289684295654" lon="23.70474100112915">
        <ele>814.57</ele>
        <time>2025-05-29T04:55:14.573Z</time>
      </trkpt>
      <trkpt lat="38.19276809692383" lon="23.70476245880127">
        <ele>816.99</ele>
        <time>2025-05-29T04:55:18.012Z</time>
      </trkpt>
      <trkpt lat="38.19266080856323" lon="23.704848289489746">
        <ele>819.48</ele>
        <time>2025-05-29T04:55:21.455Z</time>
      </trkpt>
      <trkpt lat="38.19270372390747" lon="23.70497703552246">
        <ele>822.0</ele>
        <time>2025-05-29T04:55:24.902Z</time>
      </trkpt>
      <trkpt lat="38.192564165219665" lon="23.705159425735474">
        <ele>824.65</ele>
        <time>2025-05-29T04:55:28.355Z</time>
      </trkpt>
      <trkpt lat="38.19242477416992" lon="23.705341815948486">
        <ele>827.27</ele>
        <time>2025-05-29T04:55:31.815Z</time>
      </trkpt>
      <trkpt lat="38.19235486909747" lon="23.705451618880033">
        <ele>830.04</ele>
        <time>2025-05-29T04:55:35.279Z</time>
      </trkpt>
      <trkpt lat="38.19235486909747" lon="23.705451702699065">
        <ele>832.67</ele>
        <time>2025-05-29T04:55:38.743Z</time>
      </trkpt>
      <trkpt lat="38.19227457046509" lon="23.705577850341797">
        <ele>835.51</ele>
        <time>2025-05-29T04:55:42.211Z</time>
      </trkpt>
      <trkpt lat="38.19223157130182" lon="23.705814303830266">
        <ele>838.5</ele>
        <time>2025-05-29T04:55:45.685Z</time>
      </trkpt>
      <trkpt lat="38.19218873977661" lon="23.706049919128418">
        <ele>841.55</ele>
        <time>2025-05-29T04:55:49.166Z</time>
      </trkpt>
      <trkpt lat="38.19203853607178" lon="23.706393241882324">
        <ele>844.59</ele>
        <time>2025-05-29T04:55:52.657Z</time>
      </trkpt>
      <trkpt lat="38.19203853607178" lon="23.706629695370793">
        <ele>847.61</ele>
        <time>2025-05-29T04:55:56.154Z</time>
      </trkpt>
      <trkpt lat="38.19203853607178" lon="23.706865310668945">
        <ele>850.68</ele>
        <time>2025-05-29T04:55:59.657Z</time>
      </trkpt>
      <trkpt lat="38.19190979003906" lon="23.707122802734375">
        <ele>853.63</ele>
        <time>2025-05-29T04:56:03.168Z</time>
      </trkpt>
      <trkpt lat="38.19188824854791" lon="23.707499066367745">
        <ele>856.59</ele>
        <time>2025-05-29T04:56:06.689Z</time>
      </trkpt>
      <trkpt lat="38.191866874694824" lon="23.707873821258545">
        <ele>859.57</ele>
        <time>2025-05-29T04:56:10.220Z</time>
      </trkpt>
      <trkpt lat="38.19180250167847" lon="23.708131313323975">
        <ele>862.62</ele>
        <time>2025-05-29T04:56:13.758Z</time>
      </trkpt>
      <trkpt lat="38.191823959350586" lon="23.708388805389404">
        <ele>865.77</ele>
        <time>2025-05-29T04:56:17.303Z</time>
      </trkpt>
      <trkpt lat="38.19173812866211" lon="23.708646297454834">
        <ele>868.68</ele>
        <time>2025-05-29T04:56:20.855Z</time>
      </trkpt>
      <trkpt lat="38.19172731600702" lon="23.708990290760994">
        <ele>871.5</ele>
        <time>2025-05-29T04:56:24.417Z</time>
      </trkpt>
      <trkpt lat="38.19171667098999" lon="23.709332942962646">
        <ele>874.3</ele>
        <time>2025-05-29T04:56:27.988Z</time>
      </trkpt>
      <trkpt lat="38.19167375564575" lon="23.70948314666748">
        <ele>877.09</ele>
        <time>2025-05-29T04:56:31.563Z</time>
      </trkpt>
      <trkpt lat="38.19167375564575" lon="23.709697723388672">
        <ele>879.83</ele>
        <time>2025-05-29T04:56:35.143Z</time>
      </trkpt>
      <trkpt lat="38.1916522141546" lon="23.70997717604041">
        <ele>882.52</ele>
        <time>2025-05-29T04:56:38.731Z</time>
      </trkpt>
      <trkpt lat="38.191630840301514" lon="23.71025562286377">
        <ele>885.18</ele>
        <time>2025-05-29T04:56:42.326Z</time>
      </trkpt>
      <trkpt lat="38.19171667098999" lon="23.710405826568604">
        <ele>887.91</ele>
        <time>2025-05-29T04:56:45.926Z</time>
      </trkpt>
      <trkpt lat="38.19175958633423" lon="23.710577487945557">
        <ele>890.59</ele>
        <time>2025-05-29T04:56:49.531Z</time>
      </trkpt>
      <trkpt lat="38.19177031517029" lon="23.710835482925177">
        <ele>893.26</ele>
        <time>2025-05-29T04:56:53.142Z</time>
      </trkpt>
      <trkpt lat="38.19178112782538" lon="23.711092472076416">
        <ele>895.98</ele>
        <time>2025-05-29T04:56:56.760Z</time>
      </trkpt>
      <trkpt lat="38.191866874694824" lon="23.71119976043701">
        <ele>898.66</ele>
        <time>2025-05-29T04:57:00.382Z</time>
      </trkpt>
      <trkpt lat="38.19190979003906" lon="23.711349964141846">
        <ele>901.41</ele>
        <time>2025-05-29T04:57:04.008Z</time>
      </trkpt>
      <trkpt lat="38.19188824854791" lon="23.711640229448676">
        <ele>904.27</ele>
        <time>2025-05-29T04:57:07.642Z</time>
      </trkpt>
      <trkpt lat="38.191866874694824" lon="23.711929321289062">
        <ele>907.14</ele>
        <time>2025-05-29T04:57:11.284Z</time>
      </trkpt>
      <trkpt lat="38.19175958633423" lon="23.712143898010254">
        <ele>910.07</ele>
        <time>2025-05-29T04:57:14.932Z</time>
      </trkpt>
      <trkpt lat="38.19171667098999" lon="23.7125301361084">
        <ele>913.06</ele>
        <time>2025-05-29T04:57:18.591Z</time>
      </trkpt>
      <trkpt lat="38.191544925794005" lon="23.71275544166565">
        <ele>916.16</ele>
        <time>2025-05-29T04:57:22.258Z</time>
      </trkpt>
      <trkpt lat="38.191373348236084" lon="23.7129807472229">
        <ele>919.46</ele>
        <time>2025-05-29T04:57:25.933Z</time>
      </trkpt>
      <trkpt lat="38.191265892237425" lon="23.713217033073306">
        <ele>922.6</ele>
        <time>2025-05-29T04:57:29.615Z</time>
      </trkpt>
      <trkpt lat="38.19115877151489" lon="23.71345281600952">
        <ele>925.88</ele>
        <time>2025-05-29T04:57:33.304Z</time>
      </trkpt>
      <trkpt lat="38.1910514831543" lon="23.713603019714355">
        <ele>929.08</ele>
        <time>2025-05-29T04:57:36.999Z</time>
      </trkpt>
      <trkpt lat="38.19100848399103" lon="23.713828744366765">
        <ele>932.33</ele>
        <time>2025-05-29T04:57:40.700Z</time>
      </trkpt>
      <trkpt lat="38.19096565246582" lon="23.714053630828857">
        <ele>935.61</ele>
        <time>2025-05-29T04:57:44.407Z</time>
      </trkpt>
      <trkpt lat="38.19096565246582" lon="23.714375495910645">
        <ele>939.06</ele>
        <time>2025-05-29T04:57:48.122Z</time>
      </trkpt>
      <trkpt lat="38.1909011118114" lon="23.71457959525287">
        <ele>942.58</ele>
        <time>2025-05-29T04:57:51.843Z</time>
      </trkpt>
      <trkpt lat="38.190836906433105" lon="23.714783191680908">
        <ele>946.06</ele>
        <time>2025-05-29T04:57:55.570Z</time>
      </trkpt>
      <trkpt lat="38.19079399108887" lon="23.715105056762695">
        <ele>949.62</ele>
        <time>2025-05-29T04:57:59.306Z</time>
      </trkpt>
      <trkpt lat="38.19072961807251" lon="23.715405464172363">
        <ele>952.96</ele>
        <time>2025-05-29T04:58:03.050Z</time>
      </trkpt>
      <trkpt lat="38.19066524505615" lon="23.71549129486084">
        <ele>956.19</ele>
        <time>2025-05-29T04:58:06.797Z</time>
      </trkpt>
      <trkpt lat="38.19056851789355" lon="23.715706039220095">
        <ele>959.28</ele>
        <time>2025-05-29T04:58:10.550Z</time>
      </trkpt>
      <trkpt lat="38.19047212600708" lon="23.715920448303223">
        <ele>962.45</ele>
        <time>2025-05-29T04:58:14.310Z</time>
      </trkpt>
      <trkpt lat="38.19042912684381" lon="23.716113902628422">
        <ele>965.53</ele>
        <time>2025-05-29T04:58:18.075Z</time>
      </trkpt>
      <trkpt lat="38.1903862953186" lon="23.716306686401367">
        <ele>968.49</ele>
        <time>2025-05-29T04:58:21.845Z</time>
      </trkpt>
      <trkpt lat="38.1903862953186" lon="23.71669292449951">
        <ele>971.37</ele>
        <time>2025-05-29T04:58:25.626Z</time>
      </trkpt>
      <trkpt lat="38.1903329025954" lon="23.71677305549383">
        <ele>973.88</ele>
        <time>2025-05-29T04:58:29.409Z</time>
      </trkpt>
      <trkpt lat="38.19030046463013" lon="23.716821670532227">
        <ele>976.22</ele>
        <time>2025-05-29T04:58:33.194Z</time>
      </trkpt>
      <trkpt lat="38.19027900695801" lon="23.71695041656494">
        <ele>978.43</ele>
        <time>2025-05-29T04:58:36.982Z</time>
      </trkpt>
      <trkpt lat="38.19019317626953" lon="23.7170147895813">
        <ele>980.45</ele>
        <time>2025-05-29T04:58:40.774Z</time>
      </trkpt>
      <trkpt lat="38.190064430236816" lon="23.7170147895813">
        <ele>982.27</ele>
        <time>2025-05-29T04:58:44.570Z</time>
      </trkpt>
      <trkpt lat="38.18987164646387" lon="23.71699333190918">
        <ele>984.0</ele>
        <time>2025-05-29T04:58:48.372Z</time>
      </trkpt>
      <trkpt lat="38.18967819213867" lon="23.71697187423706">
        <ele>985.76</ele>
        <time>2025-05-29T04:58:52.181Z</time>
      </trkpt>
      <trkpt lat="38.1894316803664" lon="23.71714328415692">
        <ele>987.52</ele>
        <time>2025-05-29T04:58:55.999Z</time>
      </trkpt>
      <trkpt lat="38.18918466567993" lon="23.717315196990967">
        <ele>988.95</ele>
        <time>2025-05-29T04:58:59.827Z</time>
      </trkpt>
      <trkpt lat="38.18902398459613" lon="23.717293739318848">
        <ele>990.16</ele>
        <time>2025-05-29T04:59:03.660Z</time>
      </trkpt>
      <trkpt lat="38.188862800598145" lon="23.71727228164673">
        <ele>991.21</ele>
        <time>2025-05-29T04:59:07.498Z</time>
      </trkpt>
      <trkpt lat="38.18861628882587" lon="23.71710078790784">
        <ele>992.16</ele>
        <time>2025-05-29T04:59:11.346Z</time>
      </trkpt>
      <trkpt lat="38.188369274139404" lon="23.716928958892822">
        <ele>993.08</ele>
        <time>2025-05-29T04:59:15.203Z</time>
      </trkpt>
      <trkpt lat="38.188112284988165" lon="23.71695033274591">
        <ele>993.94</ele>
        <time>2025-05-29T04:59:19.069Z</time>
      </trkpt>
      <trkpt lat="38.187854290008545" lon="23.71697187423706">
        <ele>994.76</ele>
        <time>2025-05-29T04:59:22.943Z</time>
      </trkpt>
      <trkpt lat="38.18770417012274" lon="23.717122077941895">
        <ele>995.52</ele>
        <time>2025-05-29T04:59:26.824Z</time>
      </trkpt>
      <trkpt lat="38.18770408630371" lon="23.717122077941895">
        <ele>996.27</ele>
        <time>2025-05-29T04:59:30.705Z</time>
      </trkpt>
      <trkpt lat="38.187596797943115" lon="23.717379570007324">
        <ele>997.07</ele>
        <time>2025-05-29T04:59:34.593Z</time>
      </trkpt>
      <trkpt lat="38.18751096725464" lon="23.717422485351562">
        <ele>997.87</ele>
        <time>2025-05-29T04:59:38.484Z</time>
      </trkpt>
      <trkpt lat="38.18742513656616" lon="23.717594146728516">
        <ele>998.73</ele>
        <time>2025-05-29T04:59:42.381Z</time>
      </trkpt>
      <trkpt lat="38.18736000917852" lon="23.71764427050948">
        <ele>999.68</ele>
        <time>2025-05-29T04:59:46.280Z</time>
      </trkpt>
      <trkpt lat="38.18714618682861" lon="23.717808723449707">
        <ele>1000.82</ele>
        <time>2025-05-29T04:59:50.188Z</time>
      </trkpt>
      <trkpt lat="38.18703889846802" lon="23.71800184249878">
        <ele>1001.99</ele>
        <time>2025-05-29T04:59:54.102Z</time>
      </trkpt>
      <trkpt lat="38.18689942359924" lon="23.7181734200567">
        <ele>1003.23</ele>
        <time>2025-05-29T04:59:58.022Z</time>
      </trkpt>
      <trkpt lat="38.18675994873047" lon="23.718345165252686">
        <ele>1004.52</ele>
        <time>2025-05-29T05:00:01.949Z</time>
      </trkpt>
      <trkpt lat="38.18664176389575" lon="23.718570638448">
        <ele>1005.92</ele>
        <time>2025-05-29T05:00:05.883Z</time>
      </trkpt>
      <trkpt lat="38.18652391433716" lon="23.718795776367188">
        <ele>1007.42</ele>
        <time>2025-05-29T05:00:09.824Z</time>
      </trkpt>
      <trkpt lat="38.18644864484668" lon="23.719032146036625">
        <ele>1009.13</ele>
        <time>2025-05-29T05:00:13.772Z</time>
      </trkpt>
      <trkpt lat="38.186373710632324" lon="23.71926784515381">
        <ele>1010.98</ele>
        <time>2025-05-29T05:00:17.726Z</time>
      </trkpt>
      <trkpt lat="38.18626642227173" lon="23.719418048858643">
        <ele>1012.83</ele>
        <time>2025-05-29T05:00:21.686Z</time>
      </trkpt>
      <trkpt lat="38.18626642227173" lon="23.71950387954712">
        <ele>1014.69</ele>
        <time>2025-05-29T05:00:25.648Z</time>
      </trkpt>
      <trkpt lat="38.18618059158325" lon="23.719675540924072">
        <ele>1016.69</ele>
        <time>2025-05-29T05:00:29.615Z</time>
      </trkpt>
      <trkpt lat="38.18614832125604" lon="23.720041075721383">
        <ele>1018.79</ele>
        <time>2025-05-29T05:00:33.592Z</time>
      </trkpt>
      <trkpt lat="38.186116218566895" lon="23.720405101776123">
        <ele>1020.97</ele>
        <time>2025-05-29T05:00:37.579Z</time>
      </trkpt>
      <trkpt lat="38.18603038787842" lon="23.720598220825195">
        <ele>1023.18</ele>
        <time>2025-05-29T05:00:41.571Z</time>
      </trkpt>
      <trkpt lat="38.18596601486206" lon="23.720641136169434">
        <ele>1025.32</ele>
        <time>2025-05-29T05:00:45.566Z</time>
      </trkpt>
      <trkpt lat="38.1859016418457" lon="23.720855712890625">
        <ele>1027.6</ele>
        <time>2025-05-29T05:00:49.567Z</time>
      </trkpt>
      <trkpt lat="38.1859016418457" lon="23.7209415435791">
        <ele>1029.77</ele>
        <time>2025-05-29T05:00:53.570Z</time>
      </trkpt>
      <trkpt lat="38.18579435348511" lon="23.721156120300293">
        <ele>1032.04</ele>
        <time>2025-05-29T05:00:57.580Z</time>
      </trkpt>
      <trkpt lat="38.18570852279663" lon="23.721413612365723">
        <ele>1034.29</ele>
        <time>2025-05-29T05:01:01.597Z</time>
      </trkpt>
      <trkpt lat="38.18581581115723" lon="23.72169256210327">
        <ele>1036.45</ele>
        <time>2025-05-29T05:01:05.622Z</time>
      </trkpt>
      <trkpt lat="38.18577289581299" lon="23.7219500541687">
        <ele>1038.64</ele>
        <time>2025-05-29T05:01:09.654Z</time>
      </trkpt>
      <trkpt lat="38.185601234436035" lon="23.722057342529297">
        <ele>1040.77</ele>
        <time>2025-05-29T05:01:13.693Z</time>
      </trkpt>
      <trkpt lat="38.18553686141968" lon="23.722293376922607">
        <ele>1042.84</ele>
        <time>2025-05-29T05:01:17.738Z</time>
      </trkpt>
      <trkpt lat="38.1854510307312" lon="23.722422122955322">
        <ele>1044.78</ele>
        <time>2025-05-29T05:01:21.788Z</time>
      </trkpt>
      <trkpt lat="38.185343742370605" lon="23.7225079536438">
        <ele>1046.6</ele>
        <time>2025-05-29T05:01:25.842Z</time>
      </trkpt>
      <trkpt lat="38.18519353866577" lon="23.72276544570923">
        <ele>1048.33</ele>
        <time>2025-05-29T05:01:29.904Z</time>
      </trkpt>
      <trkpt lat="38.18495750427246" lon="23.72298002243042">
        <ele>1050.1</ele>
        <time>2025-05-29T05:01:33.976Z</time>
      </trkpt>
      <trkpt lat="38.18478584289551" lon="23.72321605682373">
        <ele>1051.63</ele>
        <time>2025-05-29T05:01:38.056Z</time>
      </trkpt>
      <trkpt lat="38.18474292755127" lon="23.723323345184326">
        <ele>1052.92</ele>
        <time>2025-05-29T05:01:42.140Z</time>
      </trkpt>
      <trkpt lat="38.18473211489618" lon="23.723624339327216">
        <ele>1054.06</ele>
        <time>2025-05-29T05:01:46.231Z</time>
      </trkpt>
      <trkpt lat="38.18472138606012" lon="23.723925417289138">
        <ele>1055.01</ele>
        <time>2025-05-29T05:01:50.330Z</time>
      </trkpt>
      <trkpt lat="38.18471065722406" lon="23.724226411432028">
        <ele>1055.8</ele>
        <time>2025-05-29T05:01:54.437Z</time>
      </trkpt>
      <trkpt lat="38.18470001220703" lon="23.724524974822998">
        <ele>1056.59</ele>
        <time>2025-05-29T05:01:58.552Z</time>
      </trkpt>
      <trkpt lat="38.18472146987915" lon="23.724803924560547">
        <ele>1057.24</ele>
        <time>2025-05-29T05:02:02.675Z</time>
      </trkpt>
      <trkpt lat="38.18470001220703" lon="23.72501850128174">
        <ele>1057.72</ele>
        <time>2025-05-29T05:02:06.803Z</time>
      </trkpt>
      <trkpt lat="38.18460336886346" lon="23.725200975313783">
        <ele>1057.99</ele>
        <time>2025-05-29T05:02:10.937Z</time>
      </trkpt>
      <trkpt lat="38.18450689315796" lon="23.725383281707764">
        <ele>1058.06</ele>
        <time>2025-05-29T05:02:15.077Z</time>
      </trkpt>
      <trkpt lat="38.18450689315796" lon="23.725533485412598">
        <ele>1058.07</ele>
        <time>2025-05-29T05:02:19.221Z</time>
      </trkpt>
      <trkpt lat="38.18442106246948" lon="23.725790977478027">
        <ele>1057.86</ele>
        <time>2025-05-29T05:02:23.372Z</time>
      </trkpt>
      <trkpt lat="38.18446397781372" lon="23.725876808166504">
        <ele>1057.65</ele>
        <time>2025-05-29T05:02:27.526Z</time>
      </trkpt>
      <trkpt lat="38.18439960479736" lon="23.72622013092041">
        <ele>1057.19</ele>
        <time>2025-05-29T05:02:31.689Z</time>
      </trkpt>
      <trkpt lat="38.18442106246948" lon="23.726370334625244">
        <ele>1056.81</ele>
        <time>2025-05-29T05:02:35.856Z</time>
      </trkpt>
      <trkpt lat="38.18446397781372" lon="23.7264347076416">
        <ele>1056.29</ele>
        <time>2025-05-29T05:02:40.025Z</time>
      </trkpt>
      <trkpt lat="38.18432793952525" lon="23.726713908836246">
        <ele>1055.48</ele>
        <time>2025-05-29T05:02:44.203Z</time>
      </trkpt>
      <trkpt lat="38.18419190123677" lon="23.72699311003089">
        <ele>1054.6</ele>
        <time>2025-05-29T05:02:48.390Z</time>
      </trkpt>
      <trkpt lat="38.18405628204346" lon="23.727271556854248">
        <ele>1053.75</ele>
        <time>2025-05-29T05:02:52.585Z</time>
      </trkpt>
      <trkpt lat="38.18390607833862" lon="23.727550506591797">
        <ele>1052.79</ele>
        <time>2025-05-29T05:02:56.789Z</time>
      </trkpt>
      <trkpt lat="38.18385226652026" lon="23.727765418589115">
        <ele>1051.76</ele>
        <time>2025-05-29T05:03:00.999Z</time>
      </trkpt>
      <trkpt lat="38.18379878997803" lon="23.72797966003418">
        <ele>1050.59</ele>
        <time>2025-05-29T05:03:05.215Z</time>
      </trkpt>
      <trkpt lat="38.18370206281543" lon="23.728183675557375">
        <ele>1049.27</ele>
        <time>2025-05-29T05:03:09.437Z</time>
      </trkpt>
      <trkpt lat="38.183605670928955" lon="23.728387355804443">
        <ele>1047.88</ele>
        <time>2025-05-29T05:03:13.665Z</time>
      </trkpt>
      <trkpt lat="38.183434009552" lon="23.728623390197754">
        <ele>1046.29</ele>
        <time>2025-05-29T05:03:17.902Z</time>
      </trkpt>
      <trkpt lat="38.183391094207764" lon="23.728773593902588">
        <ele>1044.86</ele>
        <time>2025-05-29T05:03:22.143Z</time>
      </trkpt>
      <trkpt lat="38.183326721191406" lon="23.728837966918945">
        <ele>1043.44</ele>
        <time>2025-05-29T05:03:26.387Z</time>
      </trkpt>
      <trkpt lat="38.183133602142334" lon="23.728773593902588">
        <ele>1041.97</ele>
        <time>2025-05-29T05:03:30.637Z</time>
      </trkpt>
      <trkpt lat="38.182854652404785" lon="23.728644847869873">
        <ele>1040.48</ele>
        <time>2025-05-29T05:03:34.897Z</time>
      </trkpt>
      <trkpt lat="38.182686092332006" lon="23.72862950898707">
        <ele>1039.08</ele>
        <time>2025-05-29T05:03:39.163Z</time>
      </trkpt>
      <trkpt lat="38.182618618011475" lon="23.728623390197754">
        <ele>1037.84</ele>
        <time>2025-05-29T05:03:43.431Z</time>
      </trkpt>
      <trkpt lat="38.18251132965088" lon="23.728773593902588">
        <ele>1036.67</ele>
        <time>2025-05-29T05:03:47.704Z</time>
      </trkpt>
      <trkpt lat="38.18231821060181" lon="23.72896671295166">
        <ele>1035.66</ele>
        <time>2025-05-29T05:03:51.986Z</time>
      </trkpt>
      <trkpt lat="38.18223237991333" lon="23.729267120361328">
        <ele>1034.47</ele>
        <time>2025-05-29T05:03:56.276Z</time>
      </trkpt>
      <trkpt lat="38.18223237991333" lon="23.729395866394043">
        <ele>1033.35</ele>
        <time>2025-05-29T05:04:00.569Z</time>
      </trkpt>
      <trkpt lat="38.182103633880615" lon="23.729567527770996">
        <ele>1032.34</ele>
        <time>2025-05-29T05:04:04.869Z</time>
      </trkpt>
      <trkpt lat="38.182082176208496" lon="23.729782104492188">
        <ele>1031.33</ele>
        <time>2025-05-29T05:04:09.174Z</time>
      </trkpt>
      <trkpt lat="38.18203926086426" lon="23.72999668121338">
        <ele>1030.56</ele>
        <time>2025-05-29T05:04:13.485Z</time>
      </trkpt>
      <trkpt lat="38.181889057159424" lon="23.73023271560669">
        <ele>1030.02</ele>
        <time>2025-05-29T05:04:17.804Z</time>
      </trkpt>
      <trkpt lat="38.18170666694641" lon="23.73042575083673">
        <ele>1029.63</ele>
        <time>2025-05-29T05:04:22.131Z</time>
      </trkpt>
      <trkpt lat="38.1815242767334" lon="23.730618953704834">
        <ele>1029.31</ele>
        <time>2025-05-29T05:04:26.466Z</time>
      </trkpt>
      <trkpt lat="38.18155956454575" lon="23.73070721514523">
        <ele>1029.18</ele>
        <time>2025-05-29T05:04:30.804Z</time>
      </trkpt>
      <trkpt lat="38.1815242767334" lon="23.730618953704834">
        <ele>1029.31</ele>
        <time>2025-05-29T05:04:35.144Z</time>
      </trkpt>
      <trkpt lat="38.181374073028564" lon="23.73044729232788">
        <ele>1029.78</ele>
        <time>2025-05-29T05:04:39.491Z</time>
      </trkpt>
      <trkpt lat="38.18124532699585" lon="23.73051166534424">
        <ele>1030.41</ele>
        <time>2025-05-29T05:04:43.842Z</time>
      </trkpt>
      <trkpt lat="38.181138038635254" lon="23.730769157409668">
        <ele>1031.32</ele>
        <time>2025-05-29T05:04:48.201Z</time>
      </trkpt>
      <trkpt lat="38.1811164971441" lon="23.731113150715828">
        <ele>1032.42</ele>
        <time>2025-05-29T05:04:52.569Z</time>
      </trkpt>
      <trkpt lat="38.181095123291016" lon="23.73145580291748">
        <ele>1033.73</ele>
        <time>2025-05-29T05:04:56.946Z</time>
      </trkpt>
      <trkpt lat="38.18103075027466" lon="23.73171329498291">
        <ele>1035.17</ele>
        <time>2025-05-29T05:05:01.330Z</time>
      </trkpt>
      <trkpt lat="38.1808352842927" lon="23.731989478692412">
        <ele>1037.42</ele>
        <time>2025-05-29T05:05:05.724Z</time>
      </trkpt>
      <trkpt lat="38.18064006976783" lon="23.732265662401915">
        <ele>1039.69</ele>
        <time>2025-05-29T05:05:10.128Z</time>
      </trkpt>
      <trkpt lat="38.180524231866" lon="23.732429360970855">
        <ele>1042.22</ele>
        <time>2025-05-29T05:05:14.538Z</time>
      </trkpt>
      <trkpt lat="38.1804084777832" lon="23.732593059539795">
        <ele>1044.99</ele>
        <time>2025-05-29T05:05:18.953Z</time>
      </trkpt>
      <trkpt lat="38.18027973175049" lon="23.73267889022827">
        <ele>1048.21</ele>
        <time>2025-05-29T05:05:23.373Z</time>
      </trkpt>
      <trkpt lat="38.18021535873413" lon="23.732614517211914">
        <ele>1051.83</ele>
        <time>2025-05-29T05:05:27.796Z</time>
      </trkpt>
      <trkpt lat="38.18004369735718" lon="23.732593059539795">
        <ele>1055.99</ele>
        <time>2025-05-29T05:05:32.225Z</time>
      </trkpt>
      <trkpt lat="38.17991495132446" lon="23.73244285583496">
        <ele>1060.58</ele>
        <time>2025-05-29T05:05:36.660Z</time>
      </trkpt>
      <trkpt lat="38.179829120635986" lon="23.73244285583496">
        <ele>1065.26</ele>
        <time>2025-05-29T05:05:41.097Z</time>
      </trkpt>
      <trkpt lat="38.17978620529175" lon="23.73250722885132">
        <ele>1070.02</ele>
        <time>2025-05-29T05:05:45.537Z</time>
      </trkpt>
      <trkpt lat="38.17967891693115" lon="23.73250722885132">
        <ele>1075.29</ele>
        <time>2025-05-29T05:05:49.980Z</time>
      </trkpt>
      <trkpt lat="38.17955017089844" lon="23.732378482818604">
        <ele>1081.16</ele>
        <time>2025-05-29T05:05:54.429Z</time>
      </trkpt>
      <trkpt lat="38.17946434020996" lon="23.732314109802246">
        <ele>1087.1</ele>
        <time>2025-05-29T05:05:58.881Z</time>
      </trkpt>
      <trkpt lat="38.179441541433334" lon="23.732311092317104">
        <ele>1093.1</ele>
        <time>2025-05-29T05:06:03.334Z</time>
      </trkpt>
      <trkpt lat="38.179142475128174" lon="23.732271194458008">
        <ele>1099.9</ele>
        <time>2025-05-29T05:06:07.797Z</time>
      </trkpt>
      <trkpt lat="38.178884983062744" lon="23.732292652130127">
        <ele>1106.81</ele>
        <time>2025-05-29T05:06:12.268Z</time>
      </trkpt>
      <trkpt lat="38.17870284430683" lon="23.732196176424623">
        <ele>1113.93</ele>
        <time>2025-05-29T05:06:16.746Z</time>
      </trkpt>
      <trkpt lat="38.17852020263672" lon="23.732099533081055">
        <ele>1121.19</ele>
        <time>2025-05-29T05:06:21.230Z</time>
      </trkpt>
      <trkpt lat="38.17847728729248" lon="23.73194932937622">
        <ele>1128.15</ele>
        <time>2025-05-29T05:06:25.719Z</time>
      </trkpt>
      <trkpt lat="38.17821979522705" lon="23.731884956359863">
        <ele>1135.42</ele>
        <time>2025-05-29T05:06:30.216Z</time>
      </trkpt>
      <trkpt lat="38.17812306806445" lon="23.731594774872065">
        <ele>1142.36</ele>
        <time>2025-05-29T05:06:34.722Z</time>
      </trkpt>
      <trkpt lat="38.17802667617798" lon="23.731305599212646">
        <ele>1149.37</ele>
        <time>2025-05-29T05:06:39.236Z</time>
      </trkpt>
      <trkpt lat="38.177855014801025" lon="23.731091022491455">
        <ele>1156.28</ele>
        <time>2025-05-29T05:06:43.758Z</time>
      </trkpt>
      <trkpt lat="38.17774772644043" lon="23.731091022491455">
        <ele>1162.61</ele>
        <time>2025-05-29T05:06:48.284Z</time>
      </trkpt>
      <trkpt lat="38.17759735509753" lon="23.73081182129681">
        <ele>1169.14</ele>
        <time>2025-05-29T05:06:52.818Z</time>
      </trkpt>
      <trkpt lat="38.17744731903076" lon="23.730533123016357">
        <ele>1175.28</ele>
        <time>2025-05-29T05:06:57.361Z</time>
      </trkpt>
      <trkpt lat="38.17746877670288" lon="23.73042583465576">
        <ele>1180.74</ele>
        <time>2025-05-29T05:07:01.907Z</time>
      </trkpt>
      <trkpt lat="38.17740440368652" lon="23.73021125793457">
        <ele>1185.97</ele>
        <time>2025-05-29T05:07:06.459Z</time>
      </trkpt>
      <trkpt lat="38.17740440368652" lon="23.730103969573975">
        <ele>1190.74</ele>
        <time>2025-05-29T05:07:11.014Z</time>
      </trkpt>
      <trkpt lat="38.17727565765381" lon="23.729846477508545">
        <ele>1195.24</ele>
        <time>2025-05-29T05:07:15.577Z</time>
      </trkpt>
      <trkpt lat="38.17722184583545" lon="23.729470213875175">
        <ele>1199.42</ele>
        <time>2025-05-29T05:07:20.150Z</time>
      </trkpt>
      <trkpt lat="38.17716836929321" lon="23.729095458984375">
        <ele>1203.33</ele>
        <time>2025-05-29T05:07:24.733Z</time>
      </trkpt>
      <trkpt lat="38.17701816558838" lon="23.72896671295166">
        <ele>1206.89</ele>
        <time>2025-05-29T05:07:29.322Z</time>
      </trkpt>
      <trkpt lat="38.17693216726184" lon="23.72868726029992">
        <ele>1210.19</ele>
        <time>2025-05-29T05:07:33.919Z</time>
      </trkpt>
      <trkpt lat="38.176846504211426" lon="23.728408813476562">
        <ele>1213.09</ele>
        <time>2025-05-29T05:07:38.524Z</time>
      </trkpt>
      <trkpt lat="38.176814233884215" lon="23.728204546496272">
        <ele>1215.43</ele>
        <time>2025-05-29T05:07:43.134Z</time>
      </trkpt>
      <trkpt lat="38.17678213119507" lon="23.7280011177063">
        <ele>1217.39</ele>
        <time>2025-05-29T05:07:47.750Z</time>
      </trkpt>
      <trkpt lat="38.17667484283447" lon="23.728065490722656">
        <ele>1218.96</ele>
        <time>2025-05-29T05:07:52.370Z</time>
      </trkpt>
      <trkpt lat="38.176674926653504" lon="23.728065490722656">
        <ele>1220.1</ele>
        <time>2025-05-29T05:07:56.990Z</time>
      </trkpt>
      <trkpt lat="38.176621198654175" lon="23.72822650708258">
        <ele>1220.88</ele>
        <time>2025-05-29T05:08:01.614Z</time>
      </trkpt>
      <trkpt lat="38.17654609680176" lon="23.7284517288208">
        <ele>1221.34</ele>
        <time>2025-05-29T05:08:06.245Z</time>
      </trkpt>
      <trkpt lat="38.17650318145752" lon="23.72873067855835">
        <ele>1221.54</ele>
        <time>2025-05-29T05:08:10.883Z</time>
      </trkpt>
      <trkpt lat="38.17652463912964" lon="23.72899940237403">
        <ele>1221.34</ele>
        <time>2025-05-29T05:08:15.528Z</time>
      </trkpt>
      <trkpt lat="38.17654609680176" lon="23.729267120361328">
        <ele>1220.97</ele>
        <time>2025-05-29T05:08:20.180Z</time>
      </trkpt>
      <trkpt lat="38.17653528414667" lon="23.72955738566816">
        <ele>1220.49</ele>
        <time>2025-05-29T05:08:24.840Z</time>
      </trkpt>
      <trkpt lat="38.17652463912964" lon="23.729846477508545">
        <ele>1219.82</ele>
        <time>2025-05-29T05:08:29.508Z</time>
      </trkpt>
      <trkpt lat="38.17642791196704" lon="23.73008276335895">
        <ele>1219.21</ele>
        <time>2025-05-29T05:08:34.183Z</time>
      </trkpt>
      <trkpt lat="38.176331520080566" lon="23.730318546295166">
        <ele>1218.41</ele>
        <time>2025-05-29T05:08:38.865Z</time>
      </trkpt>
      <trkpt lat="38.17624568939209" lon="23.730382919311523">
        <ele>1217.44</ele>
        <time>2025-05-29T05:08:43.550Z</time>
      </trkpt>
      <trkpt lat="38.17618131637573" lon="23.73049020767212">
        <ele>1216.32</ele>
        <time>2025-05-29T05:08:48.239Z</time>
      </trkpt>
      <trkpt lat="38.176138401031494" lon="23.730661869049072">
        <ele>1215.02</ele>
        <time>2025-05-29T05:08:52.932Z</time>
      </trkpt>
      <trkpt lat="38.17618131637573" lon="23.730876445770264">
        <ele>1213.56</ele>
        <time>2025-05-29T05:08:57.631Z</time>
      </trkpt>
      <trkpt lat="38.17612750455737" lon="23.731091357767582">
        <ele>1212.15</ele>
        <time>2025-05-29T05:09:02.336Z</time>
      </trkpt>
      <trkpt lat="38.17607402801514" lon="23.731305599212646">
        <ele>1210.71</ele>
        <time>2025-05-29T05:09:07.047Z</time>
      </trkpt>
      <trkpt lat="38.176095485687256" lon="23.731520175933838">
        <ele>1209.15</ele>
        <time>2025-05-29T05:09:11.764Z</time>
      </trkpt>
      <trkpt lat="38.17600965499878" lon="23.731842041015625">
        <ele>1207.5</ele>
        <time>2025-05-29T05:09:16.490Z</time>
      </trkpt>
      <trkpt lat="38.17600965499878" lon="23.732078075408936">
        <ele>1205.7</ele>
        <time>2025-05-29T05:09:21.222Z</time>
      </trkpt>
      <trkpt lat="38.17607402801514" lon="23.73222827911377">
        <ele>1203.95</ele>
        <time>2025-05-29T05:09:25.958Z</time>
      </trkpt>
      <trkpt lat="38.176063215360045" lon="23.73254000209272">
        <ele>1202.2</ele>
        <time>2025-05-29T05:09:30.702Z</time>
      </trkpt>
      <trkpt lat="38.17605257034302" lon="23.732850551605225">
        <ele>1200.79</ele>
        <time>2025-05-29T05:09:35.455Z</time>
      </trkpt>
      <trkpt lat="38.17596657201648" lon="23.73310837894678">
        <ele>1199.53</ele>
        <time>2025-05-29T05:09:40.215Z</time>
      </trkpt>
      <trkpt lat="38.175880908966064" lon="23.733365535736084">
        <ele>1198.3</ele>
        <time>2025-05-29T05:09:44.982Z</time>
      </trkpt>
      <trkpt lat="38.175880908966064" lon="23.7334942817688">
        <ele>1197.05</ele>
        <time>2025-05-29T05:09:49.753Z</time>
      </trkpt>
      <trkpt lat="38.17581653594971" lon="23.733837604522705">
        <ele>1195.83</ele>
        <time>2025-05-29T05:09:54.533Z</time>
      </trkpt>
      <trkpt lat="38.17571980878711" lon="23.73403089120984">
        <ele>1194.88</ele>
        <time>2025-05-29T05:09:59.319Z</time>
      </trkpt>
      <trkpt lat="38.175623416900635" lon="23.73422384262085">
        <ele>1194.07</ele>
        <time>2025-05-29T05:10:04.111Z</time>
      </trkpt>
      <trkpt lat="38.1755805015564" lon="23.73443841934204">
        <ele>1193.21</ele>
        <time>2025-05-29T05:10:08.909Z</time>
      </trkpt>
      <trkpt lat="38.175623416900635" lon="23.734588623046875">
        <ele>1192.33</ele>
        <time>2025-05-29T05:10:13.711Z</time>
      </trkpt>
      <trkpt lat="38.175601959228516" lon="23.734652996063232">
        <ele>1191.71</ele>
        <time>2025-05-29T05:10:18.515Z</time>
      </trkpt>
      <trkpt lat="38.175623416900635" lon="23.734846115112305">
        <ele>1191.03</ele>
        <time>2025-05-29T05:10:23.324Z</time>
      </trkpt>
      <trkpt lat="38.17543029785156" lon="23.735017776489258">
        <ele>1190.7</ele>
        <time>2025-05-29T05:10:28.141Z</time>
      </trkpt>
      <trkpt lat="38.17543029785156" lon="23.735103607177734">
        <ele>1190.25</ele>
        <time>2025-05-29T05:10:32.960Z</time>
      </trkpt>
      <trkpt lat="38.175344467163086" lon="23.73525381088257">
        <ele>1189.96</ele>
        <time>2025-05-29T05:10:37.784Z</time>
      </trkpt>
      <trkpt lat="38.17540884017944" lon="23.735361099243164">
        <ele>1189.49</ele>
        <time>2025-05-29T05:10:42.612Z</time>
      </trkpt>
      <trkpt lat="38.17543029785156" lon="23.735511302947998">
        <ele>1189.1</ele>
        <time>2025-05-29T05:10:47.444Z</time>
      </trkpt>
      <trkpt lat="38.17525863647461" lon="23.73572587966919">
        <ele>1188.75</ele>
        <time>2025-05-29T05:10:52.284Z</time>
      </trkpt>
      <trkpt lat="38.175086975097656" lon="23.735854625701904">
        <ele>1188.64</ele>
        <time>2025-05-29T05:10:57.130Z</time>
      </trkpt>
      <trkpt lat="38.1750226020813" lon="23.7359619140625">
        <ele>1188.44</ele>
        <time>2025-05-29T05:11:01.980Z</time>
      </trkpt>
      <trkpt lat="38.175151348114014" lon="23.73621940612793">
        <ele>1187.94</ele>
        <time>2025-05-29T05:11:06.838Z</time>
      </trkpt>
      <trkpt lat="38.17523717880249" lon="23.736326694488525">
        <ele>1187.51</ele>
        <time>2025-05-29T05:11:11.700Z</time>
      </trkpt>
      <trkpt lat="38.17532300949097" lon="23.736605644226074">
        <ele>1187.09</ele>
        <time>2025-05-29T05:11:16.570Z</time>
      </trkpt>
      <trkpt lat="38.17528009414673" lon="23.736755847930908">
        <ele>1186.64</ele>
        <time>2025-05-29T05:11:21.444Z</time>
      </trkpt>
      <trkpt lat="38.17519426345825" lon="23.736798763275146">
        <ele>1186.2</ele>
        <time>2025-05-29T05:11:26.321Z</time>
      </trkpt>
      <trkpt lat="38.175108432769775" lon="23.73694896697998">
        <ele>1185.67</ele>
        <time>2025-05-29T05:11:31.203Z</time>
      </trkpt>
      <trkpt lat="38.175151348114014" lon="23.737120628356934">
        <ele>1184.9</ele>
        <time>2025-05-29T05:11:36.090Z</time>
      </trkpt>
      <trkpt lat="38.175129890441895" lon="23.73744249343872">
        <ele>1184.12</ele>
        <time>2025-05-29T05:11:40.985Z</time>
      </trkpt>
      <trkpt lat="38.17504405975342" lon="23.737571239471436">
        <ele>1183.47</ele>
        <time>2025-05-29T05:11:45.884Z</time>
      </trkpt>
      <trkpt lat="38.17506551742554" lon="23.737635612487793">
        <ele>1182.56</ele>
        <time>2025-05-29T05:11:50.785Z</time>
      </trkpt>
      <trkpt lat="38.17504405975342" lon="23.737785816192627">
        <ele>1181.57</ele>
        <time>2025-05-29T05:11:55.690Z</time>
      </trkpt>
      <trkpt lat="38.175108432769775" lon="23.737850189208984">
        <ele>1180.38</ele>
        <time>2025-05-29T05:12:00.598Z</time>
      </trkpt>
      <trkpt lat="38.17517280578613" lon="23.73817205429077">
        <ele>1179.13</ele>
        <time>2025-05-29T05:12:05.515Z</time>
      </trkpt>
      <trkpt lat="38.17521572113037" lon="23.73821496963501">
        <ele>1177.81</ele>
        <time>2025-05-29T05:12:10.434Z</time>
      </trkpt>
      <trkpt lat="38.17525863647461" lon="23.738386631011963">
        <ele>1176.42</ele>
        <time>2025-05-29T05:12:15.357Z</time>
      </trkpt>
      <trkpt lat="38.17523717880249" lon="23.738558292388916">
        <ele>1174.87</ele>
        <time>2025-05-29T05:12:20.285Z</time>
      </trkpt>
      <trkpt lat="38.17517280578613" lon="23.738601207733154">
        <ele>1173.26</ele>
        <time>2025-05-29T05:12:25.215Z</time>
      </trkpt>
      <trkpt lat="38.175151348114014" lon="23.73875141143799">
        <ele>1171.48</ele>
        <time>2025-05-29T05:12:30.149Z</time>
      </trkpt>
      <trkpt lat="38.17517280578613" lon="23.738815784454346">
        <ele>1169.64</ele>
        <time>2025-05-29T05:12:35.085Z</time>
      </trkpt>
      <trkpt lat="38.175387382507324" lon="23.73894453048706">
        <ele>1167.61</ele>
        <time>2025-05-29T05:12:40.029Z</time>
      </trkpt>
      <trkpt lat="38.17540884017944" lon="23.739073276519775">
        <ele>1165.58</ele>
        <time>2025-05-29T05:12:44.977Z</time>
      </trkpt>
      <trkpt lat="38.17539802752435" lon="23.739277543500066">
        <ele>1163.46</ele>
        <time>2025-05-29T05:12:49.930Z</time>
      </trkpt>
      <trkpt lat="38.175387382507324" lon="23.73948097229004">
        <ele>1161.35</ele>
        <time>2025-05-29T05:12:54.888Z</time>
      </trkpt>
      <trkpt lat="38.17532300949097" lon="23.739609718322754">
        <ele>1159.34</ele>
        <time>2025-05-29T05:12:59.850Z</time>
      </trkpt>
      <trkpt lat="38.17523717880249" lon="23.73969554901123">
        <ele>1157.43</ele>
        <time>2025-05-29T05:13:04.816Z</time>
      </trkpt>
      <trkpt lat="38.17521572113037" lon="23.7399959564209">
        <ele>1155.36</ele>
        <time>2025-05-29T05:13:09.790Z</time>
      </trkpt>
      <trkpt lat="38.17528009414673" lon="23.740124702453613">
        <ele>1153.51</ele>
        <time>2025-05-29T05:13:14.768Z</time>
      </trkpt>
      <trkpt lat="38.175344467163086" lon="23.74016761779785">
        <ele>1151.87</ele>
        <time>2025-05-29T05:13:19.748Z</time>
      </trkpt>
      <trkpt lat="38.1754732131958" lon="23.74016761779785">
        <ele>1150.38</ele>
        <time>2025-05-29T05:13:24.733Z</time>
      </trkpt>
      <trkpt lat="38.17545175552368" lon="23.740403652191162">
        <ele>1148.93</ele>
        <time>2025-05-29T05:13:29.724Z</time>
      </trkpt>
      <trkpt lat="38.17551621235907" lon="23.740532398223877">
        <ele>1147.69</ele>
        <time>2025-05-29T05:13:34.719Z</time>
      </trkpt>
      <trkpt lat="38.17551612854004" lon="23.740532398223877">
        <ele>1146.96</ele>
        <time>2025-05-29T05:13:39.714Z</time>
      </trkpt>
      <trkpt lat="38.17547547630966" lon="23.740555616095662">
        <ele>1146.46</ele>
        <time>2025-05-29T05:13:44.710Z</time>
      </trkpt>
      <trkpt lat="38.175365924835205" lon="23.740618228912354">
        <ele>1146.24</ele>
        <time>2025-05-29T05:13:49.710Z</time>
      </trkpt>
      <trkpt lat="38.17519426345825" lon="23.740403652191162">
        <ele>1146.78</ele>
        <time>2025-05-29T05:13:54.718Z</time>
      </trkpt>
      <trkpt lat="38.17500114440918" lon="23.740360736846924">
        <ele>1147.08</ele>
        <time>2025-05-29T05:13:59.733Z</time>
      </trkpt>
      <trkpt lat="38.17493677139282" lon="23.74018907546997">
        <ele>1147.73</ele>
        <time>2025-05-29T05:14:04.753Z</time>
      </trkpt>
      <trkpt lat="38.174765361472964" lon="23.740221178159118">
        <ele>1148.39</ele>
        <time>2025-05-29T05:14:09.779Z</time>
      </trkpt>
      <trkpt lat="38.174593448638916" lon="23.740253448486328">
        <ele>1149.44</ele>
        <time>2025-05-29T05:14:14.810Z</time>
      </trkpt>
      <trkpt lat="38.1744647026062" lon="23.740317821502686">
        <ele>1150.59</ele>
        <time>2025-05-29T05:14:19.846Z</time>
      </trkpt>
      <trkpt lat="38.174378871917725" lon="23.74046802520752">
        <ele>1151.81</ele>
        <time>2025-05-29T05:14:24.887Z</time>
      </trkpt>
      <trkpt lat="38.174335956573486" lon="23.7404465675354">
        <ele>1153.46</ele>
        <time>2025-05-29T05:14:29.929Z</time>
      </trkpt>
      <trkpt lat="38.17422866821289" lon="23.74048948287964">
        <ele>1155.24</ele>
        <time>2025-05-29T05:14:34.975Z</time>
      </trkpt>
      <trkpt lat="38.174121379852295" lon="23.74048948287964">
        <ele>1157.23</ele>
        <time>2025-05-29T05:14:40.025Z</time>
      </trkpt>
      <trkpt lat="38.17399263381958" lon="23.740253448486328">
        <ele>1159.81</ele>
        <time>2025-05-29T05:14:45.082Z</time>
      </trkpt>
      <trkpt lat="38.1739068031311" lon="23.740339279174805">
        <ele>1162.06</ele>
        <time>2025-05-29T05:14:50.143Z</time>
      </trkpt>
      <trkpt lat="38.17369222640991" lon="23.740317821502686">
        <ele>1164.72</ele>
        <time>2025-05-29T05:14:55.211Z</time>
      </trkpt>
      <trkpt lat="38.173649311065674" lon="23.740403652191162">
        <ele>1167.0</ele>
        <time>2025-05-29T05:15:00.282Z</time>
      </trkpt>
      <trkpt lat="38.173488629981875" lon="23.740371465682983">
        <ele>1169.71</ele>
        <time>2025-05-29T05:15:05.358Z</time>
      </trkpt>
      <trkpt lat="38.17332744598389" lon="23.740339279174805">
        <ele>1172.54</ele>
        <time>2025-05-29T05:15:10.440Z</time>
      </trkpt>
      <trkpt lat="38.173134326934814" lon="23.74021053314209">
        <ele>1175.38</ele>
        <time>2025-05-29T05:15:15.529Z</time>
      </trkpt>
      <trkpt lat="38.173091411590576" lon="23.740103244781494">
        <ele>1177.93</ele>
        <time>2025-05-29T05:15:20.621Z</time>
      </trkpt>
      <trkpt lat="38.17296266555786" lon="23.73993158340454">
        <ele>1180.5</ele>
        <time>2025-05-29T05:15:25.719Z</time>
      </trkpt>
      <trkpt lat="38.172855377197266" lon="23.739845752716064">
        <ele>1182.69</ele>
        <time>2025-05-29T05:15:30.821Z</time>
      </trkpt>
      <trkpt lat="38.17274808883667" lon="23.739652633666992">
        <ele>1184.9</ele>
        <time>2025-05-29T05:15:35.930Z</time>
      </trkpt>
      <trkpt lat="38.17257642745972" lon="23.739588260650635">
        <ele>1186.42</ele>
        <time>2025-05-29T05:15:41.045Z</time>
      </trkpt>
      <trkpt lat="38.17242622375488" lon="23.739266395568848">
        <ele>1188.21</ele>
        <time>2025-05-29T05:15:46.169Z</time>
      </trkpt>
      <trkpt lat="38.172244168818" lon="23.73922348022461">
        <ele>1189.16</ele>
        <time>2025-05-29T05:15:51.300Z</time>
      </trkpt>
      <trkpt lat="38.17206144332886" lon="23.73918056488037">
        <ele>1189.96</ele>
        <time>2025-05-29T05:15:56.437Z</time>
      </trkpt>
      <trkpt lat="38.17191123962402" lon="23.73918056488037">
        <ele>1190.54</ele>
        <time>2025-05-29T05:16:01.579Z</time>
      </trkpt>
      <trkpt lat="38.171868324279785" lon="23.739051818847656">
        <ele>1191.44</ele>
        <time>2025-05-29T05:16:06.725Z</time>
      </trkpt>
      <trkpt lat="38.17173957824707" lon="23.7389874458313">
        <ele>1191.75</ele>
        <time>2025-05-29T05:16:11.875Z</time>
      </trkpt>
      <trkpt lat="38.17148208618164" lon="23.7389874458313">
        <ele>1191.62</ele>
        <time>2025-05-29T05:16:17.034Z</time>
      </trkpt>
      <trkpt lat="38.171353340148926" lon="23.739094734191895">
        <ele>1191.23</ele>
        <time>2025-05-29T05:16:22.198Z</time>
      </trkpt>
      <trkpt lat="38.17119265906513" lon="23.739084005355835">
        <ele>1190.89</ele>
        <time>2025-05-29T05:16:27.367Z</time>
      </trkpt>
      <trkpt lat="38.17103147506714" lon="23.739073276519775">
        <ele>1190.36</ele>
        <time>2025-05-29T05:16:32.542Z</time>
      </trkpt>
      <trkpt lat="38.17073106765747" lon="23.73896598815918">
        <ele>1189.6</ele>
        <time>2025-05-29T05:16:37.727Z</time>
      </trkpt>
      <trkpt lat="38.170538200065494" lon="23.738858783617616">
        <ele>1188.67</ele>
        <time>2025-05-29T05:16:42.919Z</time>
      </trkpt>
      <trkpt lat="38.170344829559326" lon="23.73875141143799">
        <ele>1187.48</ele>
        <time>2025-05-29T05:16:48.118Z</time>
      </trkpt>
      <trkpt lat="38.17031390033662" lon="23.73878234066069">
        <ele>1186.02</ele>
        <time>2025-05-29T05:16:53.318Z</time>
      </trkpt>
      <trkpt lat="38.17023754119873" lon="23.738858699798584">
        <ele>1184.35</ele>
        <time>2025-05-29T05:16:58.522Z</time>
      </trkpt>
      <trkpt lat="38.17021608352661" lon="23.739030361175537">
        <ele>1182.46</ele>
        <time>2025-05-29T05:17:03.730Z</time>
      </trkpt>
      <trkpt lat="38.1700873374939" lon="23.739266395568848">
        <ele>1180.42</ele>
        <time>2025-05-29T05:17:08.946Z</time>
      </trkpt>
      <trkpt lat="38.16982984542847" lon="23.73941659927368">
        <ele>1178.22</ele>
        <time>2025-05-29T05:17:14.171Z</time>
      </trkpt>
      <trkpt lat="38.16980847157538" lon="23.739502429962158">
        <ele>1176.22</ele>
        <time>2025-05-29T05:17:19.398Z</time>
      </trkpt>
      <trkpt lat="38.16993713378906" lon="23.73967409133911">
        <ele>1174.24</ele>
        <time>2025-05-29T05:17:24.632Z</time>
      </trkpt>
      <trkpt lat="38.169913245365024" lon="23.739704517647624">
        <ele>1172.27</ele>
        <time>2025-05-29T05:17:29.867Z</time>
      </trkpt>
      <trkpt lat="38.16970109939575" lon="23.73997449874878">
        <ele>1169.87</ele>
        <time>2025-05-29T05:17:35.112Z</time>
      </trkpt>
      <trkpt lat="38.16948652267456" lon="23.740124702453613">
        <ele>1167.71</ele>
        <time>2025-05-29T05:17:40.365Z</time>
      </trkpt>
      <trkpt lat="38.16927194595337" lon="23.740339279174805">
        <ele>1165.75</ele>
        <time>2025-05-29T05:17:45.627Z</time>
      </trkpt>
      <trkpt lat="38.169214613735676" lon="23.740633064880967">
        <ele>1164.08</ele>
        <time>2025-05-29T05:17:50.897Z</time>
      </trkpt>
      <trkpt lat="38.16915728151798" lon="23.74092685058713">
        <ele>1162.34</ele>
        <time>2025-05-29T05:17:56.175Z</time>
      </trkpt>
      <trkpt lat="38.169100284576416" lon="23.74121904373169">
        <ele>1160.47</ele>
        <time>2025-05-29T05:18:01.461Z</time>
      </trkpt>
      <trkpt lat="38.1689820997417" lon="23.741476787254214">
        <ele>1158.48</ele>
        <time>2025-05-29T05:18:06.755Z</time>
      </trkpt>
      <trkpt lat="38.16886433400214" lon="23.74173402786255">
        <ele>1156.8</ele>
        <time>2025-05-29T05:18:12.057Z</time>
      </trkpt>
      <trkpt lat="38.168842792510986" lon="23.741862773895264">
        <ele>1155.52</ele>
        <time>2025-05-29T05:18:17.362Z</time>
      </trkpt>
      <trkpt lat="38.1687973625958" lon="23.741923291236162">
        <ele>1154.36</ele>
        <time>2025-05-29T05:18:22.669Z</time>
      </trkpt>
      <trkpt lat="38.1687973625958" lon="23.741923375055194">
        <ele>1153.19</ele>
        <time>2025-05-29T05:18:27.976Z</time>
      </trkpt>
      <trkpt lat="38.168842792510986" lon="23.741862773895264">
        <ele>1155.52</ele>
        <time>2025-05-29T05:18:33.285Z</time>
      </trkpt>
      <trkpt lat="38.168864250183105" lon="23.742131497710943">
        <ele>1151.0</ele>
        <time>2025-05-29T05:18:38.602Z</time>
      </trkpt>
      <trkpt lat="38.168885707855225" lon="23.742399215698242">
        <ele>1150.04</ele>
        <time>2025-05-29T05:18:43.926Z</time>
      </trkpt>
      <trkpt lat="38.168842708691955" lon="23.74263566918671">
        <ele>1149.12</ele>
        <time>2025-05-29T05:18:49.256Z</time>
      </trkpt>
      <trkpt lat="38.16879987716675" lon="23.742871284484863">
        <ele>1148.01</ele>
        <time>2025-05-29T05:18:54.592Z</time>
      </trkpt>
      <trkpt lat="38.16882133483887" lon="23.74317169189453">
        <ele>1146.43</ele>
        <time>2025-05-29T05:18:59.936Z</time>
      </trkpt>
      <trkpt lat="38.16879987716675" lon="23.74345064163208">
        <ele>1144.84</ele>
        <time>2025-05-29T05:19:05.288Z</time>
      </trkpt>
      <trkpt lat="38.16879987716675" lon="23.743793964385986">
        <ele>1142.93</ele>
        <time>2025-05-29T05:19:10.649Z</time>
      </trkpt>
      <trkpt lat="38.16874606534839" lon="23.744127145037055">
        <ele>1140.91</ele>
        <time>2025-05-29T05:19:16.019Z</time>
      </trkpt>
      <trkpt lat="38.16869258880615" lon="23.74445915222168">
        <ele>1138.6</ele>
        <time>2025-05-29T05:19:21.398Z</time>
      </trkpt>
      <trkpt lat="38.16869258880615" lon="23.74471664428711">
        <ele>1135.98</ele>
        <time>2025-05-29T05:19:26.783Z</time>
      </trkpt>
      <trkpt lat="38.168649673461914" lon="23.74490976333618">
        <ele>1133.23</ele>
        <time>2025-05-29T05:19:32.174Z</time>
      </trkpt>
      <trkpt lat="38.168649673461914" lon="23.74525375664234">
        <ele>1130.08</ele>
        <time>2025-05-29T05:19:37.574Z</time>
      </trkpt>
      <trkpt lat="38.168649673461914" lon="23.745596408843994">
        <ele>1126.86</ele>
        <time>2025-05-29T05:19:42.983Z</time>
      </trkpt>
      <trkpt lat="38.16858530044556" lon="23.745639324188232">
        <ele>1123.67</ele>
        <time>2025-05-29T05:19:48.394Z</time>
      </trkpt>
      <trkpt lat="38.16852796822786" lon="23.74600477516651">
        <ele>1120.02</ele>
        <time>2025-05-29T05:19:53.815Z</time>
      </trkpt>
      <trkpt lat="38.16847063601017" lon="23.746370309963822">
        <ele>1116.13</ele>
        <time>2025-05-29T05:19:59.246Z</time>
      </trkpt>
      <trkpt lat="38.1684136390686" lon="23.74673366546631">
        <ele>1112.23</ele>
        <time>2025-05-29T05:20:04.686Z</time>
      </trkpt>
      <trkpt lat="38.16832780838013" lon="23.74699115753174">
        <ele>1108.44</ele>
        <time>2025-05-29T05:20:10.134Z</time>
      </trkpt>
      <trkpt lat="38.16829553805292" lon="23.747302880510688">
        <ele>1104.75</ele>
        <time>2025-05-29T05:20:15.590Z</time>
      </trkpt>
      <trkpt lat="38.16826343536377" lon="23.747613430023193">
        <ele>1100.97</ele>
        <time>2025-05-29T05:20:21.054Z</time>
      </trkpt>
      <trkpt lat="38.16823116503656" lon="23.747817613184452">
        <ele>1097.16</ele>
        <time>2025-05-29T05:20:26.524Z</time>
      </trkpt>
      <trkpt lat="38.16819906234741" lon="23.748021125793457">
        <ele>1093.4</ele>
        <time>2025-05-29T05:20:31.999Z</time>
      </trkpt>
      <trkpt lat="38.168113231658936" lon="23.74823570251465">
        <ele>1089.66</ele>
        <time>2025-05-29T05:20:37.480Z</time>
      </trkpt>
      <trkpt lat="38.16802740097046" lon="23.748300075531006">
        <ele>1086.25</ele>
        <time>2025-05-29T05:20:42.965Z</time>
      </trkpt>
      <trkpt lat="38.16792011260986" lon="23.748300075531006">
        <ele>1082.93</ele>
        <time>2025-05-29T05:20:48.453Z</time>
      </trkpt>
      <trkpt lat="38.16779145039618" lon="23.748493194580078">
        <ele>1079.56</ele>
        <time>2025-05-29T05:20:53.948Z</time>
      </trkpt>
      <trkpt lat="38.16776990890503" lon="23.748772144317627">
        <ele>1076.5</ele>
        <time>2025-05-29T05:20:59.450Z</time>
      </trkpt>
      <trkpt lat="38.16781282424927" lon="23.748965598642826">
        <ele>1073.61</ele>
        <time>2025-05-29T05:21:04.958Z</time>
      </trkpt>
      <trkpt lat="38.167855739593506" lon="23.74915838241577">
        <ele>1070.82</ele>
        <time>2025-05-29T05:21:10.471Z</time>
      </trkpt>
      <trkpt lat="38.167898654937744" lon="23.74922275543213">
        <ele>1068.38</ele>
        <time>2025-05-29T05:21:15.986Z</time>
      </trkpt>
      <trkpt lat="38.16798448562622" lon="23.74922275543213">
        <ele>1066.21</ele>
        <time>2025-05-29T05:21:21.504Z</time>
      </trkpt>
      <trkpt lat="38.168156147003174" lon="23.749351501464844">
        <ele>1064.03</ele>
        <time>2025-05-29T05:21:27.029Z</time>
      </trkpt>
      <trkpt lat="38.16817760467529" lon="23.749394416809082">
        <ele>1062.12</ele>
        <time>2025-05-29T05:21:32.555Z</time>
      </trkpt>
      <trkpt lat="38.168392265215516" lon="23.749501705169678">
        <ele>1060.44</ele>
        <time>2025-05-29T05:21:38.089Z</time>
      </trkpt>
      <trkpt lat="38.16846661269665" lon="23.74957613646984">
        <ele>1058.87</ele>
        <time>2025-05-29T05:21:43.626Z</time>
      </trkpt>
      <trkpt lat="38.1685209274292" lon="23.749630451202393">
        <ele>1057.46</ele>
        <time>2025-05-29T05:21:49.165Z</time>
      </trkpt>
      <trkpt lat="38.16867113113403" lon="23.74990940093994">
        <ele>1055.85</ele>
        <time>2025-05-29T05:21:54.713Z</time>
      </trkpt>
      <trkpt lat="38.16875696182251" lon="23.7499737739563">
        <ele>1054.66</ele>
        <time>2025-05-29T05:22:00.264Z</time>
      </trkpt>
      <trkpt lat="38.1689715385437" lon="23.74995231628418">
        <ele>1053.65</ele>
        <time>2025-05-29T05:22:05.823Z</time>
      </trkpt>
      <trkpt lat="38.16922903060913" lon="23.749845027923584">
        <ele>1052.94</ele>
        <time>2025-05-29T05:22:11.391Z</time>
      </trkpt>
      <trkpt lat="38.1694221496582" lon="23.74990940093994">
        <ele>1052.03</ele>
        <time>2025-05-29T05:22:16.965Z</time>
      </trkpt>
      <trkpt lat="38.16967964172363" lon="23.749802112579346">
        <ele>1051.46</ele>
        <time>2025-05-29T05:22:22.548Z</time>
      </trkpt>
      <trkpt lat="38.16985088400543" lon="23.749791383743286">
        <ele>1050.77</ele>
        <time>2025-05-29T05:22:28.137Z</time>
      </trkpt>
      <trkpt lat="38.17002296447754" lon="23.749780654907227">
        <ele>1049.97</ele>
        <time>2025-05-29T05:22:33.732Z</time>
      </trkpt>
      <trkpt lat="38.1700873374939" lon="23.74969482421875">
        <ele>1049.48</ele>
        <time>2025-05-29T05:22:39.330Z</time>
      </trkpt>
      <trkpt lat="38.17019462585449" lon="23.749501705169678">
        <ele>1049.12</ele>
        <time>2025-05-29T05:22:44.934Z</time>
      </trkpt>
      <trkpt lat="38.17021608352661" lon="23.7494158744812">
        <ele>1048.79</ele>
        <time>2025-05-29T05:22:50.540Z</time>
      </trkpt>
      <trkpt lat="38.17030191421509" lon="23.749265670776367">
        <ele>1048.42</ele>
        <time>2025-05-29T05:22:56.151Z</time>
      </trkpt>
      <trkpt lat="38.17041993141174" lon="23.749104654416442">
        <ele>1048.13</ele>
        <time>2025-05-29T05:23:01.768Z</time>
      </trkpt>
      <trkpt lat="38.1705379486084" lon="23.74894380569458">
        <ele>1047.88</ele>
        <time>2025-05-29T05:23:07.391Z</time>
      </trkpt>
      <trkpt lat="38.17058086395264" lon="23.748793601989746">
        <ele>1047.73</ele>
        <time>2025-05-29T05:23:13.018Z</time>
      </trkpt>
      <trkpt lat="38.170602321624756" lon="23.748536109924316">
        <ele>1047.72</ele>
        <time>2025-05-29T05:23:18.652Z</time>
      </trkpt>
      <trkpt lat="38.17049503326416" lon="23.748300075531006">
        <ele>1047.98</ele>
        <time>2025-05-29T05:23:24.293Z</time>
      </trkpt>
      <trkpt lat="38.1705379486084" lon="23.748021125793457">
        <ele>1048.04</ele>
        <time>2025-05-29T05:23:29.941Z</time>
      </trkpt>
      <trkpt lat="38.17079544067383" lon="23.747828006744385">
        <ele>1047.59</ele>
        <time>2025-05-29T05:23:35.599Z</time>
      </trkpt>
      <trkpt lat="38.17091345787048" lon="23.7476562615484">
        <ele>1047.54</ele>
        <time>2025-05-29T05:23:41.263Z</time>
      </trkpt>
      <trkpt lat="38.17103147506714" lon="23.74748468399048">
        <ele>1047.37</ele>
        <time>2025-05-29T05:23:46.933Z</time>
      </trkpt>
      <trkpt lat="38.17111738957465" lon="23.74726977199316">
        <ele>1047.27</ele>
        <time>2025-05-29T05:23:52.610Z</time>
      </trkpt>
      <trkpt lat="38.17120313644409" lon="23.747055530548096">
        <ele>1047.14</ele>
        <time>2025-05-29T05:23:58.293Z</time>
      </trkpt>
      <trkpt lat="38.17120313644409" lon="23.74692678451538">
        <ele>1047.17</ele>
        <time>2025-05-29T05:24:03.979Z</time>
      </trkpt>
      <trkpt lat="38.17124605178833" lon="23.746840953826904">
        <ele>1047.19</ele>
        <time>2025-05-29T05:24:09.668Z</time>
      </trkpt>
      <trkpt lat="38.171438835561275" lon="23.74673374928534">
        <ele>1047.22</ele>
        <time>2025-05-29T05:24:15.364Z</time>
      </trkpt>
      <trkpt lat="38.171632289886475" lon="23.746626377105713">
        <ele>1047.28</ele>
        <time>2025-05-29T05:24:21.067Z</time>
      </trkpt>
      <trkpt lat="38.171653747558594" lon="23.74647617340088">
        <ele>1047.56</ele>
        <time>2025-05-29T05:24:26.774Z</time>
      </trkpt>
      <trkpt lat="38.17171812057495" lon="23.74643325805664">
        <ele>1048.07</ele>
        <time>2025-05-29T05:24:32.484Z</time>
      </trkpt>
      <trkpt lat="38.17167637869716" lon="23.74609949067235">
        <ele>1048.73</ele>
        <time>2025-05-29T05:24:38.202Z</time>
      </trkpt>
      <trkpt lat="38.17167520523071" lon="23.746089935302734">
        <ele>1049.57</ele>
        <time>2025-05-29T05:24:43.921Z</time>
      </trkpt>
      <trkpt lat="38.17173957824707" lon="23.74591827392578">
        <ele>1050.65</ele>
        <time>2025-05-29T05:24:49.645Z</time>
      </trkpt>
      <trkpt lat="38.17195415496826" lon="23.745789527893066">
        <ele>1052.12</ele>
        <time>2025-05-29T05:24:55.377Z</time>
      </trkpt>
      <trkpt lat="38.17208298482001" lon="23.745832443237305">
        <ele>1053.48</ele>
        <time>2025-05-29T05:25:01.113Z</time>
      </trkpt>
      <trkpt lat="38.17225456237793" lon="23.74568223953247">
        <ele>1055.07</ele>
        <time>2025-05-29T05:25:06.856Z</time>
      </trkpt>
      <trkpt lat="38.172436617314816" lon="23.745607221499085">
        <ele>1056.76</ele>
        <time>2025-05-29T05:25:12.605Z</time>
      </trkpt>
      <trkpt lat="38.172619342803955" lon="23.745532035827637">
        <ele>1058.72</ele>
        <time>2025-05-29T05:25:18.361Z</time>
      </trkpt>
      <trkpt lat="38.17274808883667" lon="23.745381832122803">
        <ele>1060.88</ele>
        <time>2025-05-29T05:25:24.123Z</time>
      </trkpt>
      <trkpt lat="38.17298412322998" lon="23.745253086090088">
        <ele>1063.08</ele>
        <time>2025-05-29T05:25:29.893Z</time>
      </trkpt>
      <trkpt lat="38.173112785443664" lon="23.745135068893433">
        <ele>1065.2</ele>
        <time>2025-05-29T05:25:35.668Z</time>
      </trkpt>
      <trkpt lat="38.17324161529541" lon="23.745017051696777">
        <ele>1067.26</ele>
        <time>2025-05-29T05:25:41.449Z</time>
      </trkpt>
      <trkpt lat="38.1734561920166" lon="23.744866847991943">
        <ele>1069.59</ele>
        <time>2025-05-29T05:25:47.238Z</time>
      </trkpt>
      <trkpt lat="38.17353137768805" lon="23.744630394503474">
        <ele>1071.95</ele>
        <time>2025-05-29T05:25:53.034Z</time>
      </trkpt>
      <trkpt lat="38.173606395721436" lon="23.744394779205322">
        <ele>1074.53</ele>
        <time>2025-05-29T05:25:58.836Z</time>
      </trkpt>
      <trkpt lat="38.17360647954047" lon="23.744394779205322">
        <ele>1076.78</ele>
        <time>2025-05-29T05:26:04.638Z</time>
      </trkpt>
      <trkpt lat="38.17375659942627" lon="23.744330406188965">
        <ele>1079.38</ele>
        <time>2025-05-29T05:26:10.446Z</time>
      </trkpt>
      <trkpt lat="38.17379951477051" lon="23.74415874481201">
        <ele>1081.85</ele>
        <time>2025-05-29T05:26:16.258Z</time>
      </trkpt>
      <trkpt lat="38.17394971847534" lon="23.743879795074463">
        <ele>1084.14</ele>
        <time>2025-05-29T05:26:22.079Z</time>
      </trkpt>
      <trkpt lat="38.17400344647467" lon="23.743675528094172">
        <ele>1086.21</ele>
        <time>2025-05-29T05:26:27.906Z</time>
      </trkpt>
      <trkpt lat="38.17405700683594" lon="23.7434720993042">
        <ele>1088.23</ele>
        <time>2025-05-29T05:26:33.738Z</time>
      </trkpt>
      <trkpt lat="38.17422866821289" lon="23.74319314956665">
        <ele>1090.15</ele>
        <time>2025-05-29T05:26:39.580Z</time>
      </trkpt>
      <trkpt lat="38.17430385388434" lon="23.742978237569332">
        <ele>1092.17</ele>
        <time>2025-05-29T05:26:45.428Z</time>
      </trkpt>
      <trkpt lat="38.174378871917725" lon="23.742763996124268">
        <ele>1094.13</ele>
        <time>2025-05-29T05:26:51.282Z</time>
      </trkpt>
      <trkpt lat="38.1744647026062" lon="23.74269962310791">
        <ele>1095.8</ele>
        <time>2025-05-29T05:26:57.139Z</time>
      </trkpt>
      <trkpt lat="38.17467927932739" lon="23.742871284484863">
        <ele>1097.07</ele>
        <time>2025-05-29T05:27:03.005Z</time>
      </trkpt>
      <trkpt lat="38.174893856048584" lon="23.742763996124268">
        <ele>1098.75</ele>
        <time>2025-05-29T05:27:08.879Z</time>
      </trkpt>
      <trkpt lat="38.174893939867616" lon="23.742763996124268">
        <ele>1100.1</ele>
        <time>2025-05-29T05:27:14.753Z</time>
      </trkpt>
      <trkpt lat="38.175086975097656" lon="23.742527961730957">
        <ele>1101.48</ele>
        <time>2025-05-29T05:27:20.635Z</time>
      </trkpt>
      <trkpt lat="38.17528026178479" lon="23.742457637563348">
        <ele>1102.7</ele>
        <time>2025-05-29T05:27:26.524Z</time>
      </trkpt>
      <trkpt lat="38.17532300949097" lon="23.74244213104248">
        <ele>1103.86</ele>
        <time>2025-05-29T05:27:32.415Z</time>
      </trkpt>
      <trkpt lat="38.175515877082944" lon="23.742302739992738">
        <ele>1105.05</ele>
        <time>2025-05-29T05:27:38.313Z</time>
      </trkpt>
      <trkpt lat="38.17570924758911" lon="23.74216318130493">
        <ele>1106.04</ele>
        <time>2025-05-29T05:27:44.218Z</time>
      </trkpt>
      <trkpt lat="38.175902366638184" lon="23.74199151992798">
        <ele>1107.1</ele>
        <time>2025-05-29T05:27:50.131Z</time>
      </trkpt>
      <trkpt lat="38.17600965499878" lon="23.741798400878906">
        <ele>1108.27</ele>
        <time>2025-05-29T05:27:56.050Z</time>
      </trkpt>
      <trkpt lat="38.17619187757373" lon="23.741648280993104">
        <ele>1109.33</ele>
        <time>2025-05-29T05:28:01.977Z</time>
      </trkpt>
      <trkpt lat="38.176374435424805" lon="23.74149799346924">
        <ele>1110.43</ele>
        <time>2025-05-29T05:28:07.911Z</time>
      </trkpt>
      <trkpt lat="38.17656755447388" lon="23.741283416748047">
        <ele>1111.6</ele>
        <time>2025-05-29T05:28:13.854Z</time>
      </trkpt>
      <trkpt lat="38.17665338516235" lon="23.741025924682617">
        <ele>1112.86</ele>
        <time>2025-05-29T05:28:19.804Z</time>
      </trkpt>
      <trkpt lat="38.17665338516235" lon="23.740789890289307">
        <ele>1114.16</ele>
        <time>2025-05-29T05:28:25.760Z</time>
      </trkpt>
      <trkpt lat="38.17676067352295" lon="23.740510940551758">
        <ele>1115.47</ele>
        <time>2025-05-29T05:28:31.724Z</time>
      </trkpt>
      <trkpt lat="38.17695379257202" lon="23.7404465675354">
        <ele>1116.46</ele>
        <time>2025-05-29T05:28:37.695Z</time>
      </trkpt>
      <trkpt lat="38.177125453948975" lon="23.74046802520752">
        <ele>1117.37</ele>
        <time>2025-05-29T05:28:43.672Z</time>
      </trkpt>
      <trkpt lat="38.17731714807451" lon="23.74036350287497">
        <ele>1118.26</ele>
        <time>2025-05-29T05:28:49.656Z</time>
      </trkpt>
      <trkpt lat="38.177361488342285" lon="23.740339279174805">
        <ele>1119.06</ele>
        <time>2025-05-29T05:28:55.641Z</time>
      </trkpt>
      <trkpt lat="38.17721128463745" lon="23.74021053314209">
        <ele>1119.93</ele>
        <time>2025-05-29T05:29:01.632Z</time>
      </trkpt>
      <trkpt lat="38.17729711532593" lon="23.740038704127073">
        <ele>1120.62</ele>
        <time>2025-05-29T05:29:07.629Z</time>
      </trkpt>
      <trkpt lat="38.177382946014404" lon="23.739867210388184">
        <ele>1121.18</ele>
        <time>2025-05-29T05:29:13.631Z</time>
      </trkpt>
      <trkpt lat="38.177339946851134" lon="23.739576945081353">
        <ele>1121.74</ele>
        <time>2025-05-29T05:29:19.641Z</time>
      </trkpt>
      <trkpt lat="38.17729719914496" lon="23.739287853240967">
        <ele>1122.1</ele>
        <time>2025-05-29T05:29:25.658Z</time>
      </trkpt>
      <trkpt lat="38.17736039869487" lon="23.73909800313413">
        <ele>1122.1</ele>
        <time>2025-05-29T05:29:31.681Z</time>
      </trkpt>
      <trkpt lat="38.17736039869487" lon="23.739098086953163">
        <ele>1122.0</ele>
        <time>2025-05-29T05:29:37.704Z</time>
      </trkpt>
      <trkpt lat="38.17744731903076" lon="23.738837242126465">
        <ele>1121.54</ele>
        <time>2025-05-29T05:29:43.734Z</time>
      </trkpt>
      <trkpt lat="38.17737204954028" lon="23.738611517474055">
        <ele>1121.03</ele>
        <time>2025-05-29T05:29:49.771Z</time>
      </trkpt>
      <trkpt lat="38.17729711532593" lon="23.738386631011963">
        <ele>1120.29</ele>
        <time>2025-05-29T05:29:55.814Z</time>
      </trkpt>
      <trkpt lat="38.17729711532593" lon="23.73819351196289">
        <ele>1119.49</ele>
        <time>2025-05-29T05:30:01.862Z</time>
      </trkpt>
      <trkpt lat="38.17701816558838" lon="23.738021850585938">
        <ele>1119.23</ele>
        <time>2025-05-29T05:30:07.921Z</time>
      </trkpt>
      <trkpt lat="38.17716836929321" lon="23.737828731536865">
        <ele>1117.7</ele>
        <time>2025-05-29T05:30:13.987Z</time>
      </trkpt>
      <trkpt lat="38.177361488342285" lon="23.737549781799316">
        <ele>1116.35</ele>
        <time>2025-05-29T05:30:20.062Z</time>
      </trkpt>
      <trkpt lat="38.17742586135864" lon="23.73718500137329">
        <ele>1115.38</ele>
        <time>2025-05-29T05:30:26.147Z</time>
      </trkpt>
      <trkpt lat="38.17742586135864" lon="23.7369704246521">
        <ele>1114.34</ele>
        <time>2025-05-29T05:30:32.238Z</time>
      </trkpt>
      <trkpt lat="38.17755460739136" lon="23.7369704246521">
        <ele>1112.66</ele>
        <time>2025-05-29T05:30:38.333Z</time>
      </trkpt>
      <trkpt lat="38.177640438079834" lon="23.736798763275146">
        <ele>1111.1</ele>
        <time>2025-05-29T05:30:44.434Z</time>
      </trkpt>
      <trkpt lat="38.17781176418066" lon="23.73673447407782">
        <ele>1109.32</ele>
        <time>2025-05-29T05:30:50.540Z</time>
      </trkpt>
      <trkpt lat="38.17798376083374" lon="23.73667001724243">
        <ele>1107.39</ele>
        <time>2025-05-29T05:30:56.652Z</time>
      </trkpt>
      <trkpt lat="38.17806959152222" lon="23.73645544052124">
        <ele>1105.3</ele>
        <time>2025-05-29T05:31:02.771Z</time>
      </trkpt>
      <trkpt lat="38.178091049194336" lon="23.73645544052124">
        <ele>1103.11</ele>
        <time>2025-05-29T05:31:08.890Z</time>
      </trkpt>
      <trkpt lat="38.17817687988281" lon="23.736305236816406">
        <ele>1100.72</ele>
        <time>2025-05-29T05:31:15.014Z</time>
      </trkpt>
      <trkpt lat="38.17826271057129" lon="23.736090660095215">
        <ele>1098.09</ele>
        <time>2025-05-29T05:31:21.145Z</time>
      </trkpt>
      <trkpt lat="38.178348541259766" lon="23.736090660095215">
        <ele>1095.4</ele>
        <time>2025-05-29T05:31:27.279Z</time>
      </trkpt>
      <trkpt lat="38.17853101529181" lon="23.735800813883543">
        <ele>1092.37</ele>
        <time>2025-05-29T05:31:33.422Z</time>
      </trkpt>
      <trkpt lat="38.17871332168579" lon="23.735511302947998">
        <ele>1089.56</ele>
        <time>2025-05-29T05:31:39.575Z</time>
      </trkpt>
      <trkpt lat="38.17882061004639" lon="23.73548984527588">
        <ele>1086.67</ele>
        <time>2025-05-29T05:31:45.732Z</time>
      </trkpt>
      <trkpt lat="38.17892789840698" lon="23.735318183898926">
        <ele>1083.91</ele>
        <time>2025-05-29T05:31:51.894Z</time>
      </trkpt>
      <trkpt lat="38.17918539047241" lon="23.735146522521973">
        <ele>1080.99</ele>
        <time>2025-05-29T05:31:58.066Z</time>
      </trkpt>
      <trkpt lat="38.17927122116089" lon="23.734910488128662">
        <ele>1078.57</ele>
        <time>2025-05-29T05:32:04.245Z</time>
      </trkpt>
      <trkpt lat="38.179378509521484" lon="23.734824657440186">
        <ele>1075.97</ele>
        <time>2025-05-29T05:32:10.428Z</time>
      </trkpt>
      <trkpt lat="38.17957162857056" lon="23.734652996063232">
        <ele>1073.34</ele>
        <time>2025-05-29T05:32:16.619Z</time>
      </trkpt>
      <trkpt lat="38.179829120635986" lon="23.734545707702637">
        <ele>1070.66</ele>
        <time>2025-05-29T05:32:22.819Z</time>
      </trkpt>
      <trkpt lat="38.17997932434082" lon="23.734309505671263">
        <ele>1068.41</ele>
        <time>2025-05-29T05:32:29.027Z</time>
      </trkpt>
      <trkpt lat="38.180129528045654" lon="23.734073638916016">
        <ele>1066.08</ele>
        <time>2025-05-29T05:32:35.243Z</time>
      </trkpt>
      <trkpt lat="38.180151069536805" lon="23.733880519866943">
        <ele>1064.13</ele>
        <time>2025-05-29T05:32:41.464Z</time>
      </trkpt>
      <trkpt lat="38.18015098571777" lon="23.733880519866943">
        <ele>1062.54</ele>
        <time>2025-05-29T05:32:47.685Z</time>
      </trkpt>
      <trkpt lat="38.180151069536805" lon="23.733880519866943">
        <ele>1064.13</ele>
        <time>2025-05-29T05:32:53.906Z</time>
      </trkpt>
      <trkpt lat="38.18015098571777" lon="23.733880519866943">
        <ele>1062.54</ele>
        <time>2025-05-29T05:33:00.127Z</time>
      </trkpt>
      <trkpt lat="38.180054258555174" lon="23.733590338379145">
        <ele>1058.04</ele>
        <time>2025-05-29T05:33:06.356Z</time>
      </trkpt>
      <trkpt lat="38.1799578666687" lon="23.733301162719727">
        <ele>1056.69</ele>
        <time>2025-05-29T05:33:12.594Z</time>
      </trkpt>
      <trkpt lat="38.17991495132446" lon="23.733150959014893">
        <ele>1055.23</ele>
        <time>2025-05-29T05:33:18.836Z</time>
      </trkpt>
      <trkpt lat="38.1799578666687" lon="23.733065128326416">
        <ele>1053.49</ele>
        <time>2025-05-29T05:33:25.080Z</time>
      </trkpt>
      <trkpt lat="38.18011871539056" lon="23.732872009277344">
        <ele>1051.44</ele>
        <time>2025-05-29T05:33:31.332Z</time>
      </trkpt>
      <trkpt lat="38.18027973175049" lon="23.73267889022827">
        <ele>1048.21</ele>
        <time>2025-05-29T05:33:37.591Z</time>
      </trkpt>
      <trkpt lat="38.1804084777832" lon="23.732657432556152">
        <ele>1047.27</ele>
        <time>2025-05-29T05:33:43.855Z</time>
      </trkpt>
      <trkpt lat="38.18049481138587" lon="23.732671849429607">
        <ele>1045.01</ele>
        <time>2025-05-29T05:33:50.121Z</time>
      </trkpt>
      <trkpt lat="38.18053722381592" lon="23.73267889022827">
        <ele>1042.66</ele>
        <time>2025-05-29T05:33:56.389Z</time>
      </trkpt>
      <trkpt lat="38.18079471588135" lon="23.732657432556152">
        <ele>1039.73</ele>
        <time>2025-05-29T05:34:02.665Z</time>
      </trkpt>
      <trkpt lat="38.180880546569824" lon="23.73270034790039">
        <ele>1037.23</ele>
        <time>2025-05-29T05:34:08.945Z</time>
      </trkpt>
      <trkpt lat="38.181095123291016" lon="23.7324857711792">
        <ele>1034.74</ele>
        <time>2025-05-29T05:34:15.234Z</time>
      </trkpt>
      <trkpt lat="38.18130970001221" lon="23.732335567474365">
        <ele>1032.16</ele>
        <time>2025-05-29T05:34:21.531Z</time>
      </trkpt>
      <trkpt lat="38.18145990371704" lon="23.732314109802246">
        <ele>1029.97</ele>
        <time>2025-05-29T05:34:27.833Z</time>
      </trkpt>
      <trkpt lat="38.181610107421875" lon="23.732357025146484">
        <ele>1027.77</ele>
        <time>2025-05-29T05:34:34.140Z</time>
      </trkpt>
      <trkpt lat="38.18173885345459" lon="23.732399940490723">
        <ele>1025.64</ele>
        <time>2025-05-29T05:34:40.451Z</time>
      </trkpt>
      <trkpt lat="38.181867599487305" lon="23.732335567474365">
        <ele>1023.74</ele>
        <time>2025-05-29T05:34:46.767Z</time>
      </trkpt>
      <trkpt lat="38.18208226002753" lon="23.732357025146484">
        <ele>1022.22</ele>
        <time>2025-05-29T05:34:53.090Z</time>
      </trkpt>
      <trkpt lat="38.182125175371766" lon="23.732378482818604">
        <ele>1021.1</ele>
        <time>2025-05-29T05:34:59.415Z</time>
      </trkpt>
      <trkpt lat="38.18225383758545" lon="23.732399940490723">
        <ele>1020.22</ele>
        <time>2025-05-29T05:35:05.744Z</time>
      </trkpt>
      <trkpt lat="38.182321982458234" lon="23.732399940490723">
        <ele>1019.44</ele>
        <time>2025-05-29T05:35:12.075Z</time>
      </trkpt>
    </trkseg>
  </trk>
</gpx>
